<?xml version="1.0" encoding="UTF-8" standalone="no" ?>
<gpx xmlns="http://www.topografix.com/GPX/1/1" xmlns:xsi="http://www.w3.org/2001/XMLSchema-instance" xsi:schemaLocation="http://www.topografix.com/GPX/1/1 http://www.topografix.com/GPX/1/1/gpx.xsd" version="1.1" creator="VisuGPX - https://www.visugpx.com">
  <metadata>
    <name>Sortie filles du VCSSP 05-12-15</name>
    <desc><![CDATA[Sortie filles du VCSSP 05-12-15]]></desc>
  </metadata>
  <trk>
    <name><![CDATA[Méjannes-le-Clap Cyclisme]]></name>
    <trkseg>
      <trkpt lat="44.22689" lon="4.34873">
        <ele>300</ele>
        <time>2015-12-05T08:19:54.000Z</time>
      </trkpt>
      <trkpt lat="44.22689" lon="4.34869">
        <ele>219</ele>
        <time>2015-12-05T08:19:55.000Z</time>
      </trkpt>
      <trkpt lat="44.22689" lon="4.34866">
        <ele>219</ele>
        <time>2015-12-05T08:19:56.000Z</time>
      </trkpt>
      <trkpt lat="44.22688" lon="4.34855">
        <ele>300.39999389648</ele>
        <time>2015-12-05T08:19:59.000Z</time>
      </trkpt>
      <trkpt lat="44.22687" lon="4.34852">
        <ele>300.20001220703</ele>
        <time>2015-12-05T08:20:00.000Z</time>
      </trkpt>
      <trkpt lat="44.22667" lon="4.34793">
        <ele>300.60000610352</ele>
        <time>2015-12-05T08:20:20.000Z</time>
      </trkpt>
      <trkpt lat="44.22666" lon="4.3479">
        <ele>300.79998779297</ele>
        <time>2015-12-05T08:20:21.000Z</time>
      </trkpt>
      <trkpt lat="44.22664" lon="4.34787">
        <ele>300.79998779297</ele>
        <time>2015-12-05T08:20:22.000Z</time>
      </trkpt>
      <trkpt lat="44.22642" lon="4.34749">
        <ele>302</ele>
        <time>2015-12-05T08:20:37.000Z</time>
      </trkpt>
      <trkpt lat="44.22643" lon="4.34747">
        <ele>302.20001220703</ele>
        <time>2015-12-05T08:20:38.000Z</time>
      </trkpt>
      <trkpt lat="44.22669" lon="4.34677">
        <ele>304.20001220703</ele>
        <time>2015-12-05T08:21:02.000Z</time>
      </trkpt>
      <trkpt lat="44.22645" lon="4.34605">
        <ele>306</ele>
        <time>2015-12-05T08:21:24.000Z</time>
      </trkpt>
      <trkpt lat="44.22616" lon="4.34538">
        <ele>308.39999389648</ele>
        <time>2015-12-05T08:21:46.000Z</time>
      </trkpt>
      <trkpt lat="44.22608" lon="4.34504">
        <ele>310</ele>
        <time>2015-12-05T08:21:57.000Z</time>
      </trkpt>
      <trkpt lat="44.2261" lon="4.34501">
        <ele>310</ele>
        <time>2015-12-05T08:21:58.000Z</time>
      </trkpt>
      <trkpt lat="44.22612" lon="4.34499">
        <ele>309.79998779297</ele>
        <time>2015-12-05T08:21:59.000Z</time>
      </trkpt>
      <trkpt lat="44.22614" lon="4.34497">
        <ele>309.79998779297</ele>
        <time>2015-12-05T08:22:00.000Z</time>
      </trkpt>
      <trkpt lat="44.22617" lon="4.34495">
        <ele>309.79998779297</ele>
        <time>2015-12-05T08:22:01.000Z</time>
      </trkpt>
      <trkpt lat="44.22664" lon="4.34448">
        <ele>309.79998779297</ele>
        <time>2015-12-05T08:22:20.000Z</time>
      </trkpt>
      <trkpt lat="44.22698" lon="4.34386">
        <ele>311.39999389648</ele>
        <time>2015-12-05T08:22:40.000Z</time>
      </trkpt>
      <trkpt lat="44.22738" lon="4.34327">
        <ele>313.60000610352</ele>
        <time>2015-12-05T08:23:01.000Z</time>
      </trkpt>
      <trkpt lat="44.22792" lon="4.343">
        <ele>315.79998779297</ele>
        <time>2015-12-05T08:23:23.000Z</time>
      </trkpt>
      <trkpt lat="44.22846" lon="4.34272">
        <ele>318.60000610352</ele>
        <time>2015-12-05T08:23:45.000Z</time>
      </trkpt>
      <trkpt lat="44.22905" lon="4.34271">
        <ele>319.20001220703</ele>
        <time>2015-12-05T08:24:07.000Z</time>
      </trkpt>
      <trkpt lat="44.22963" lon="4.34273">
        <ele>318.20001220703</ele>
        <time>2015-12-05T08:24:26.000Z</time>
      </trkpt>
      <trkpt lat="44.23006" lon="4.34273">
        <ele>315.60000610352</ele>
        <time>2015-12-05T08:24:36.000Z</time>
      </trkpt>
      <trkpt lat="44.23012" lon="4.34274">
        <ele>315</ele>
        <time>2015-12-05T08:24:37.000Z</time>
      </trkpt>
      <trkpt lat="44.23017" lon="4.34273">
        <ele>314.60000610352</ele>
        <time>2015-12-05T08:24:38.000Z</time>
      </trkpt>
      <trkpt lat="44.23023" lon="4.34274">
        <ele>314</ele>
        <time>2015-12-05T08:24:39.000Z</time>
      </trkpt>
      <trkpt lat="44.2303" lon="4.34274">
        <ele>313.39999389648</ele>
        <time>2015-12-05T08:24:40.000Z</time>
      </trkpt>
      <trkpt lat="44.23051" lon="4.34274">
        <ele>311.39999389648</ele>
        <time>2015-12-05T08:24:43.000Z</time>
      </trkpt>
      <trkpt lat="44.23087" lon="4.34279">
        <ele>310</ele>
        <time>2015-12-05T08:24:52.000Z</time>
      </trkpt>
      <trkpt lat="44.23088" lon="4.34283">
        <ele>309.79998779297</ele>
        <time>2015-12-05T08:24:53.000Z</time>
      </trkpt>
      <trkpt lat="44.23074" lon="4.34358">
        <ele>312.60000610352</ele>
        <time>2015-12-05T08:25:18.000Z</time>
      </trkpt>
      <trkpt lat="44.23033" lon="4.34415">
        <ele>315.39999389648</ele>
        <time>2015-12-05T08:25:47.000Z</time>
      </trkpt>
      <trkpt lat="44.23032" lon="4.34499">
        <ele>315</ele>
        <time>2015-12-05T08:26:09.000Z</time>
      </trkpt>
      <trkpt lat="44.23045" lon="4.34588">
        <ele>314.60000610352</ele>
        <time>2015-12-05T08:26:28.000Z</time>
      </trkpt>
      <trkpt lat="44.23057" lon="4.34662">
        <ele>313.20001220703</ele>
        <time>2015-12-05T08:26:44.000Z</time>
      </trkpt>
      <trkpt lat="44.23059" lon="4.34668">
        <ele>313</ele>
        <time>2015-12-05T08:26:45.000Z</time>
      </trkpt>
      <trkpt lat="44.23068" lon="4.34699">
        <ele>311</ele>
        <time>2015-12-05T08:26:52.000Z</time>
      </trkpt>
      <trkpt lat="44.23072" lon="4.34698">
        <ele>310.79998779297</ele>
        <time>2015-12-05T08:26:53.000Z</time>
      </trkpt>
      <trkpt lat="44.23075" lon="4.34697">
        <ele>310.60000610352</ele>
        <time>2015-12-05T08:26:54.000Z</time>
      </trkpt>
      <trkpt lat="44.23102" lon="4.34683">
        <ele>309.79998779297</ele>
        <time>2015-12-05T08:27:11.000Z</time>
      </trkpt>
      <trkpt lat="44.23159" lon="4.34662">
        <ele>308</ele>
        <time>2015-12-05T08:27:40.000Z</time>
      </trkpt>
      <trkpt lat="44.2319" lon="4.34675">
        <ele>305</ele>
        <time>2015-12-05T08:27:49.000Z</time>
      </trkpt>
      <trkpt lat="44.23212" lon="4.34686">
        <ele>303.20001220703</ele>
        <time>2015-12-05T08:27:55.000Z</time>
      </trkpt>
      <trkpt lat="44.23266" lon="4.34717">
        <ele>301.39999389648</ele>
        <time>2015-12-05T08:28:12.000Z</time>
      </trkpt>
      <trkpt lat="44.2327" lon="4.34719">
        <ele>301.20001220703</ele>
        <time>2015-12-05T08:28:13.000Z</time>
      </trkpt>
      <trkpt lat="44.23274" lon="4.34722">
        <ele>300.79998779297</ele>
        <time>2015-12-05T08:28:14.000Z</time>
      </trkpt>
      <trkpt lat="44.2332" lon="4.34768">
        <ele>298.79998779297</ele>
        <time>2015-12-05T08:28:34.000Z</time>
      </trkpt>
      <trkpt lat="44.23366" lon="4.3483">
        <ele>296.20001220703</ele>
        <time>2015-12-05T08:28:56.000Z</time>
      </trkpt>
      <trkpt lat="44.23423" lon="4.34867">
        <ele>295.79998779297</ele>
        <time>2015-12-05T08:29:18.000Z</time>
      </trkpt>
      <trkpt lat="44.23426" lon="4.34866">
        <ele>295.20001220703</ele>
        <time>2015-12-05T08:29:25.000Z</time>
      </trkpt>
      <trkpt lat="44.23431" lon="4.34865">
        <ele>295.20001220703</ele>
        <time>2015-12-05T08:30:09.000Z</time>
      </trkpt>
      <trkpt lat="44.23431" lon="4.34866">
        <ele>295.20001220703</ele>
        <time>2015-12-05T08:30:11.000Z</time>
      </trkpt>
      <trkpt lat="44.2343" lon="4.34867">
        <ele>295.39999389648</ele>
        <time>2015-12-05T08:30:14.000Z</time>
      </trkpt>
      <trkpt lat="44.23442" lon="4.34871">
        <ele>295.39999389648</ele>
        <time>2015-12-05T08:32:46.000Z</time>
      </trkpt>
      <trkpt lat="44.23445" lon="4.34872">
        <ele>295.39999389648</ele>
        <time>2015-12-05T08:32:47.000Z</time>
      </trkpt>
      <trkpt lat="44.23465" lon="4.34875">
        <ele>294.20001220703</ele>
        <time>2015-12-05T08:32:53.000Z</time>
      </trkpt>
      <trkpt lat="44.2347" lon="4.34877">
        <ele>293.79998779297</ele>
        <time>2015-12-05T08:32:54.000Z</time>
      </trkpt>
      <trkpt lat="44.23473" lon="4.3488">
        <ele>293.39999389648</ele>
        <time>2015-12-05T08:32:55.000Z</time>
      </trkpt>
      <trkpt lat="44.23491" lon="4.3489">
        <ele>291.60000610352</ele>
        <time>2015-12-05T08:32:59.000Z</time>
      </trkpt>
      <trkpt lat="44.23512" lon="4.34901">
        <ele>291.20001220703</ele>
        <time>2015-12-05T08:33:04.000Z</time>
      </trkpt>
      <trkpt lat="44.23515" lon="4.34905">
        <ele>291.39999389648</ele>
        <time>2015-12-05T08:33:05.000Z</time>
      </trkpt>
      <trkpt lat="44.23556" lon="4.34957">
        <ele>291.39999389648</ele>
        <time>2015-12-05T08:33:21.000Z</time>
      </trkpt>
      <trkpt lat="44.23602" lon="4.35004">
        <ele>289.60000610352</ele>
        <time>2015-12-05T08:33:36.000Z</time>
      </trkpt>
      <trkpt lat="44.2366" lon="4.35024">
        <ele>287.20001220703</ele>
        <time>2015-12-05T08:33:50.000Z</time>
      </trkpt>
      <trkpt lat="44.23681" lon="4.35033">
        <ele>286.79998779297</ele>
        <time>2015-12-05T08:33:55.000Z</time>
      </trkpt>
      <trkpt lat="44.23685" lon="4.35036">
        <ele>286.60000610352</ele>
        <time>2015-12-05T08:33:56.000Z</time>
      </trkpt>
      <trkpt lat="44.23709" lon="4.35046">
        <ele>286.20001220703</ele>
        <time>2015-12-05T08:34:02.000Z</time>
      </trkpt>
      <trkpt lat="44.23713" lon="4.35047">
        <ele>286.20001220703</ele>
        <time>2015-12-05T08:34:03.000Z</time>
      </trkpt>
      <trkpt lat="44.23718" lon="4.35048">
        <ele>286</ele>
        <time>2015-12-05T08:34:04.000Z</time>
      </trkpt>
      <trkpt lat="44.23727" lon="4.35052">
        <ele>286</ele>
        <time>2015-12-05T08:34:06.000Z</time>
      </trkpt>
      <trkpt lat="44.2373" lon="4.35055">
        <ele>286</ele>
        <time>2015-12-05T08:34:07.000Z</time>
      </trkpt>
      <trkpt lat="44.23733" lon="4.35058">
        <ele>286.20001220703</ele>
        <time>2015-12-05T08:34:08.000Z</time>
      </trkpt>
      <trkpt lat="44.23734" lon="4.35063">
        <ele>286.20001220703</ele>
        <time>2015-12-05T08:34:09.000Z</time>
      </trkpt>
      <trkpt lat="44.23735" lon="4.35068">
        <ele>286.20001220703</ele>
        <time>2015-12-05T08:34:10.000Z</time>
      </trkpt>
      <trkpt lat="44.23736" lon="4.35073">
        <ele>286.20001220703</ele>
        <time>2015-12-05T08:34:11.000Z</time>
      </trkpt>
      <trkpt lat="44.23747" lon="4.35104">
        <ele>288.39999389648</ele>
        <time>2015-12-05T08:34:21.000Z</time>
      </trkpt>
      <trkpt lat="44.23749" lon="4.35106">
        <ele>288.20001220703</ele>
        <time>2015-12-05T08:34:27.000Z</time>
      </trkpt>
      <trkpt lat="44.23753" lon="4.35109">
        <ele>288.60000610352</ele>
        <time>2015-12-05T08:35:46.000Z</time>
      </trkpt>
      <trkpt lat="44.23755" lon="4.35111">
        <ele>288.39999389648</ele>
        <time>2015-12-05T08:35:47.000Z</time>
      </trkpt>
      <trkpt lat="44.2381" lon="4.35139">
        <ele>290.60000610352</ele>
        <time>2015-12-05T08:36:13.000Z</time>
      </trkpt>
      <trkpt lat="44.23857" lon="4.35188">
        <ele>291.39999389648</ele>
        <time>2015-12-05T08:36:35.000Z</time>
      </trkpt>
      <trkpt lat="44.23907" lon="4.35237">
        <ele>293.20001220703</ele>
        <time>2015-12-05T08:36:56.000Z</time>
      </trkpt>
      <trkpt lat="44.23953" lon="4.35294">
        <ele>295.79998779297</ele>
        <time>2015-12-05T08:37:19.000Z</time>
      </trkpt>
      <trkpt lat="44.2397" lon="4.3531">
        <ele>297.60000610352</ele>
        <time>2015-12-05T08:37:27.000Z</time>
      </trkpt>
      <trkpt lat="44.2397" lon="4.35313">
        <ele>297.79998779297</ele>
        <time>2015-12-05T08:37:28.000Z</time>
      </trkpt>
      <trkpt lat="44.2397" lon="4.35315">
        <ele>297.79998779297</ele>
        <time>2015-12-05T08:37:29.000Z</time>
      </trkpt>
      <trkpt lat="44.23969" lon="4.35317">
        <ele>297.79998779297</ele>
        <time>2015-12-05T08:37:30.000Z</time>
      </trkpt>
      <trkpt lat="44.23968" lon="4.35319">
        <ele>297.79998779297</ele>
        <time>2015-12-05T08:37:31.000Z</time>
      </trkpt>
      <trkpt lat="44.23938" lon="4.35382">
        <ele>298.39999389648</ele>
        <time>2015-12-05T08:37:59.000Z</time>
      </trkpt>
      <trkpt lat="44.23907" lon="4.3545">
        <ele>296.39999389648</ele>
        <time>2015-12-05T08:38:23.000Z</time>
      </trkpt>
      <trkpt lat="44.2387" lon="4.35523">
        <ele>293.60000610352</ele>
        <time>2015-12-05T08:38:39.000Z</time>
      </trkpt>
      <trkpt lat="44.23835" lon="4.35595">
        <ele>291</ele>
        <time>2015-12-05T08:38:51.000Z</time>
      </trkpt>
      <trkpt lat="44.23798" lon="4.35667">
        <ele>288.20001220703</ele>
        <time>2015-12-05T08:39:02.000Z</time>
      </trkpt>
      <trkpt lat="44.23762" lon="4.35746">
        <ele>285.79998779297</ele>
        <time>2015-12-05T08:39:13.000Z</time>
      </trkpt>
      <trkpt lat="44.23744" lon="4.35783">
        <ele>284.79998779297</ele>
        <time>2015-12-05T08:39:19.000Z</time>
      </trkpt>
      <trkpt lat="44.2374" lon="4.35787">
        <ele>284.60000610352</ele>
        <time>2015-12-05T08:39:20.000Z</time>
      </trkpt>
      <trkpt lat="44.23735" lon="4.3579">
        <ele>284.79998779297</ele>
        <time>2015-12-05T08:39:21.000Z</time>
      </trkpt>
      <trkpt lat="44.23731" lon="4.3579">
        <ele>285</ele>
        <time>2015-12-05T08:39:22.000Z</time>
      </trkpt>
      <trkpt lat="44.23728" lon="4.35788">
        <ele>285.39999389648</ele>
        <time>2015-12-05T08:39:23.000Z</time>
      </trkpt>
      <trkpt lat="44.23725" lon="4.35783">
        <ele>286</ele>
        <time>2015-12-05T08:39:24.000Z</time>
      </trkpt>
      <trkpt lat="44.23724" lon="4.35777">
        <ele>286.20001220703</ele>
        <time>2015-12-05T08:39:25.000Z</time>
      </trkpt>
      <trkpt lat="44.23721" lon="4.35773">
        <ele>286.39999389648</ele>
        <time>2015-12-05T08:39:26.000Z</time>
      </trkpt>
      <trkpt lat="44.23707" lon="4.35761">
        <ele>286.60000610352</ele>
        <time>2015-12-05T08:39:43.000Z</time>
      </trkpt>
      <trkpt lat="44.23698" lon="4.3577">
        <ele>286.20001220703</ele>
        <time>2015-12-05T08:40:18.000Z</time>
      </trkpt>
      <trkpt lat="44.23697" lon="4.35773">
        <ele>286.20001220703</ele>
        <time>2015-12-05T08:40:19.000Z</time>
      </trkpt>
      <trkpt lat="44.23695" lon="4.35776">
        <ele>286.20001220703</ele>
        <time>2015-12-05T08:40:20.000Z</time>
      </trkpt>
      <trkpt lat="44.23694" lon="4.35779">
        <ele>286.20001220703</ele>
        <time>2015-12-05T08:40:21.000Z</time>
      </trkpt>
      <trkpt lat="44.23644" lon="4.35804">
        <ele>286.39999389648</ele>
        <time>2015-12-05T08:40:40.000Z</time>
      </trkpt>
      <trkpt lat="44.23591" lon="4.35798">
        <ele>289.39999389648</ele>
        <time>2015-12-05T08:41:00.000Z</time>
      </trkpt>
      <trkpt lat="44.2354" lon="4.35762">
        <ele>290.60000610352</ele>
        <time>2015-12-05T08:41:17.000Z</time>
      </trkpt>
      <trkpt lat="44.23486" lon="4.35755">
        <ele>291.39999389648</ele>
        <time>2015-12-05T08:41:33.000Z</time>
      </trkpt>
      <trkpt lat="44.23427" lon="4.35762">
        <ele>291.20001220703</ele>
        <time>2015-12-05T08:41:50.000Z</time>
      </trkpt>
      <trkpt lat="44.23369" lon="4.35767">
        <ele>287.39999389648</ele>
        <time>2015-12-05T08:42:03.000Z</time>
      </trkpt>
      <trkpt lat="44.23351" lon="4.35769">
        <ele>285.79998779297</ele>
        <time>2015-12-05T08:42:06.000Z</time>
      </trkpt>
      <trkpt lat="44.23346" lon="4.35773">
        <ele>285</ele>
        <time>2015-12-05T08:42:07.000Z</time>
      </trkpt>
      <trkpt lat="44.23341" lon="4.35777">
        <ele>284.60000610352</ele>
        <time>2015-12-05T08:42:08.000Z</time>
      </trkpt>
      <trkpt lat="44.23338" lon="4.35784">
        <ele>284.39999389648</ele>
        <time>2015-12-05T08:42:09.000Z</time>
      </trkpt>
      <trkpt lat="44.23336" lon="4.35792">
        <ele>284.20001220703</ele>
        <time>2015-12-05T08:42:10.000Z</time>
      </trkpt>
      <trkpt lat="44.23335" lon="4.358">
        <ele>285</ele>
        <time>2015-12-05T08:42:11.000Z</time>
      </trkpt>
      <trkpt lat="44.23335" lon="4.35808">
        <ele>285.60000610352</ele>
        <time>2015-12-05T08:42:12.000Z</time>
      </trkpt>
      <trkpt lat="44.23334" lon="4.35815">
        <ele>285</ele>
        <time>2015-12-05T08:42:13.000Z</time>
      </trkpt>
      <trkpt lat="44.23326" lon="4.35894">
        <ele>284</ele>
        <time>2015-12-05T08:42:25.000Z</time>
      </trkpt>
      <trkpt lat="44.23323" lon="4.35914">
        <ele>283.39999389648</ele>
        <time>2015-12-05T08:42:28.000Z</time>
      </trkpt>
      <trkpt lat="44.23326" lon="4.36005">
        <ele>282.79998779297</ele>
        <time>2015-12-05T08:42:41.000Z</time>
      </trkpt>
      <trkpt lat="44.23335" lon="4.3609">
        <ele>282.20001220703</ele>
        <time>2015-12-05T08:42:55.000Z</time>
      </trkpt>
      <trkpt lat="44.23346" lon="4.36172">
        <ele>284.39999389648</ele>
        <time>2015-12-05T08:43:11.000Z</time>
      </trkpt>
      <trkpt lat="44.2335" lon="4.36216">
        <ele>284</ele>
        <time>2015-12-05T08:43:19.000Z</time>
      </trkpt>
      <trkpt lat="44.2335" lon="4.36223">
        <ele>284</ele>
        <time>2015-12-05T08:43:20.000Z</time>
      </trkpt>
      <trkpt lat="44.23353" lon="4.36259">
        <ele>284.60000610352</ele>
        <time>2015-12-05T08:43:26.000Z</time>
      </trkpt>
      <trkpt lat="44.23361" lon="4.36338">
        <ele>286</ele>
        <time>2015-12-05T08:43:40.000Z</time>
      </trkpt>
      <trkpt lat="44.23387" lon="4.36401">
        <ele>286.79998779297</ele>
        <time>2015-12-05T08:43:57.000Z</time>
      </trkpt>
      <trkpt lat="44.23445" lon="4.36385">
        <ele>286.60000610352</ele>
        <time>2015-12-05T08:44:14.000Z</time>
      </trkpt>
      <trkpt lat="44.23497" lon="4.36383">
        <ele>285</ele>
        <time>2015-12-05T08:44:27.000Z</time>
      </trkpt>
      <trkpt lat="44.23501" lon="4.36383">
        <ele>285</ele>
        <time>2015-12-05T08:44:28.000Z</time>
      </trkpt>
      <trkpt lat="44.23505" lon="4.36383">
        <ele>285.20001220703</ele>
        <time>2015-12-05T08:44:29.000Z</time>
      </trkpt>
      <trkpt lat="44.2356" lon="4.36374">
        <ele>284.39999389648</ele>
        <time>2015-12-05T08:44:43.000Z</time>
      </trkpt>
      <trkpt lat="44.23572" lon="4.36373">
        <ele>285</ele>
        <time>2015-12-05T08:44:54.000Z</time>
      </trkpt>
      <trkpt lat="44.2358" lon="4.36368">
        <ele>284.79998779297</ele>
        <time>2015-12-05T08:45:18.000Z</time>
      </trkpt>
      <trkpt lat="44.2364" lon="4.36378">
        <ele>283.20001220703</ele>
        <time>2015-12-05T08:45:44.000Z</time>
      </trkpt>
      <trkpt lat="44.2368" lon="4.36412">
        <ele>281.39999389648</ele>
        <time>2015-12-05T08:45:56.000Z</time>
      </trkpt>
      <trkpt lat="44.23683" lon="4.36416">
        <ele>281.60000610352</ele>
        <time>2015-12-05T08:45:57.000Z</time>
      </trkpt>
      <trkpt lat="44.23718" lon="4.36441">
        <ele>284.60000610352</ele>
        <time>2015-12-05T08:46:09.000Z</time>
      </trkpt>
      <trkpt lat="44.23761" lon="4.36462">
        <ele>287.60000610352</ele>
        <time>2015-12-05T08:46:25.000Z</time>
      </trkpt>
      <trkpt lat="44.23809" lon="4.3649">
        <ele>290.79998779297</ele>
        <time>2015-12-05T08:46:46.000Z</time>
      </trkpt>
      <trkpt lat="44.23855" lon="4.36541">
        <ele>292.20001220703</ele>
        <time>2015-12-05T08:47:09.000Z</time>
      </trkpt>
      <trkpt lat="44.23879" lon="4.36613">
        <ele>292.39999389648</ele>
        <time>2015-12-05T08:47:33.000Z</time>
      </trkpt>
      <trkpt lat="44.23905" lon="4.36693">
        <ele>290.79998779297</ele>
        <time>2015-12-05T08:47:54.000Z</time>
      </trkpt>
      <trkpt lat="44.2394" lon="4.36761">
        <ele>288.79998779297</ele>
        <time>2015-12-05T08:48:10.000Z</time>
      </trkpt>
      <trkpt lat="44.23947" lon="4.36775">
        <ele>288.60000610352</ele>
        <time>2015-12-05T08:48:13.000Z</time>
      </trkpt>
      <trkpt lat="44.23952" lon="4.36784">
        <ele>288.60000610352</ele>
        <time>2015-12-05T08:48:15.000Z</time>
      </trkpt>
      <trkpt lat="44.23954" lon="4.36789">
        <ele>288.60000610352</ele>
        <time>2015-12-05T08:48:16.000Z</time>
      </trkpt>
      <trkpt lat="44.23956" lon="4.36794">
        <ele>288.60000610352</ele>
        <time>2015-12-05T08:48:17.000Z</time>
      </trkpt>
      <trkpt lat="44.23979" lon="4.3687">
        <ele>289.39999389648</ele>
        <time>2015-12-05T08:48:34.000Z</time>
      </trkpt>
      <trkpt lat="44.24011" lon="4.36935">
        <ele>290.39999389648</ele>
        <time>2015-12-05T08:48:54.000Z</time>
      </trkpt>
      <trkpt lat="44.24067" lon="4.36955">
        <ele>289.39999389648</ele>
        <time>2015-12-05T08:49:13.000Z</time>
      </trkpt>
      <trkpt lat="44.24104" lon="4.37016">
        <ele>288.20001220703</ele>
        <time>2015-12-05T08:49:31.000Z</time>
      </trkpt>
      <trkpt lat="44.24125" lon="4.37094">
        <ele>287.20001220703</ele>
        <time>2015-12-05T08:49:48.000Z</time>
      </trkpt>
      <trkpt lat="44.24131" lon="4.37114">
        <ele>288</ele>
        <time>2015-12-05T08:50:01.000Z</time>
      </trkpt>
      <trkpt lat="44.24128" lon="4.37121">
        <ele>287.79998779297</ele>
        <time>2015-12-05T08:51:58.000Z</time>
      </trkpt>
      <trkpt lat="44.24128" lon="4.37124">
        <ele>288.20001220703</ele>
        <time>2015-12-05T08:51:59.000Z</time>
      </trkpt>
      <trkpt lat="44.24125" lon="4.37136">
        <ele>289</ele>
        <time>2015-12-05T08:52:04.000Z</time>
      </trkpt>
      <trkpt lat="44.24126" lon="4.37139">
        <ele>289</ele>
        <time>2015-12-05T08:52:05.000Z</time>
      </trkpt>
      <trkpt lat="44.24127" lon="4.37141">
        <ele>289</ele>
        <time>2015-12-05T08:52:06.000Z</time>
      </trkpt>
      <trkpt lat="44.24128" lon="4.37142">
        <ele>289</ele>
        <time>2015-12-05T08:52:07.000Z</time>
      </trkpt>
      <trkpt lat="44.24131" lon="4.37143">
        <ele>289.20001220703</ele>
        <time>2015-12-05T08:52:08.000Z</time>
      </trkpt>
      <trkpt lat="44.24133" lon="4.37143">
        <ele>289.39999389648</ele>
        <time>2015-12-05T08:52:09.000Z</time>
      </trkpt>
      <trkpt lat="44.24137" lon="4.37142">
        <ele>289.20001220703</ele>
        <time>2015-12-05T08:52:10.000Z</time>
      </trkpt>
      <trkpt lat="44.24141" lon="4.37141">
        <ele>288.79998779297</ele>
        <time>2015-12-05T08:52:11.000Z</time>
      </trkpt>
      <trkpt lat="44.24145" lon="4.37138">
        <ele>288.60000610352</ele>
        <time>2015-12-05T08:52:12.000Z</time>
      </trkpt>
      <trkpt lat="44.2415" lon="4.37136">
        <ele>288.39999389648</ele>
        <time>2015-12-05T08:52:13.000Z</time>
      </trkpt>
      <trkpt lat="44.24155" lon="4.37132">
        <ele>288</ele>
        <time>2015-12-05T08:52:14.000Z</time>
      </trkpt>
      <trkpt lat="44.24203" lon="4.37098">
        <ele>285</ele>
        <time>2015-12-05T08:52:24.000Z</time>
      </trkpt>
      <trkpt lat="44.2421" lon="4.37096">
        <ele>284.79998779297</ele>
        <time>2015-12-05T08:52:25.000Z</time>
      </trkpt>
      <trkpt lat="44.24243" lon="4.37077">
        <ele>285.20001220703</ele>
        <time>2015-12-05T08:52:31.000Z</time>
      </trkpt>
      <trkpt lat="44.24247" lon="4.37072">
        <ele>285</ele>
        <time>2015-12-05T08:52:32.000Z</time>
      </trkpt>
      <trkpt lat="44.24252" lon="4.37067">
        <ele>284.39999389648</ele>
        <time>2015-12-05T08:52:33.000Z</time>
      </trkpt>
      <trkpt lat="44.24266" lon="4.37051">
        <ele>283</ele>
        <time>2015-12-05T08:52:36.000Z</time>
      </trkpt>
      <trkpt lat="44.24271" lon="4.37047">
        <ele>283</ele>
        <time>2015-12-05T08:52:37.000Z</time>
      </trkpt>
      <trkpt lat="44.24292" lon="4.37033">
        <ele>281.20001220703</ele>
        <time>2015-12-05T08:52:41.000Z</time>
      </trkpt>
      <trkpt lat="44.24309" lon="4.37025">
        <ele>280.39999389648</ele>
        <time>2015-12-05T08:52:44.000Z</time>
      </trkpt>
      <trkpt lat="44.24316" lon="4.37023">
        <ele>279.79998779297</ele>
        <time>2015-12-05T08:52:45.000Z</time>
      </trkpt>
      <trkpt lat="44.24322" lon="4.37023">
        <ele>279.79998779297</ele>
        <time>2015-12-05T08:52:46.000Z</time>
      </trkpt>
      <trkpt lat="44.24334" lon="4.37021">
        <ele>279.39999389648</ele>
        <time>2015-12-05T08:52:48.000Z</time>
      </trkpt>
      <trkpt lat="44.2434" lon="4.3702">
        <ele>279</ele>
        <time>2015-12-05T08:52:49.000Z</time>
      </trkpt>
      <trkpt lat="44.24347" lon="4.37019">
        <ele>278.39999389648</ele>
        <time>2015-12-05T08:52:50.000Z</time>
      </trkpt>
      <trkpt lat="44.24354" lon="4.37019">
        <ele>278.39999389648</ele>
        <time>2015-12-05T08:52:51.000Z</time>
      </trkpt>
      <trkpt lat="44.24361" lon="4.37019">
        <ele>278.20001220703</ele>
        <time>2015-12-05T08:52:52.000Z</time>
      </trkpt>
      <trkpt lat="44.24376" lon="4.37017">
        <ele>276.60000610352</ele>
        <time>2015-12-05T08:52:54.000Z</time>
      </trkpt>
      <trkpt lat="44.24438" lon="4.37024">
        <ele>274.20001220703</ele>
        <time>2015-12-05T08:53:02.000Z</time>
      </trkpt>
      <trkpt lat="44.24484" lon="4.37044">
        <ele>274.39999389648</ele>
        <time>2015-12-05T08:53:08.000Z</time>
      </trkpt>
      <trkpt lat="44.2449" lon="4.37049">
        <ele>274.20001220703</ele>
        <time>2015-12-05T08:53:09.000Z</time>
      </trkpt>
      <trkpt lat="44.24494" lon="4.37056">
        <ele>275</ele>
        <time>2015-12-05T08:53:10.000Z</time>
      </trkpt>
      <trkpt lat="44.24498" lon="4.37063">
        <ele>276</ele>
        <time>2015-12-05T08:53:11.000Z</time>
      </trkpt>
      <trkpt lat="44.24501" lon="4.37069">
        <ele>276.39999389648</ele>
        <time>2015-12-05T08:53:12.000Z</time>
      </trkpt>
      <trkpt lat="44.24505" lon="4.37073">
        <ele>276.79998779297</ele>
        <time>2015-12-05T08:53:13.000Z</time>
      </trkpt>
      <trkpt lat="44.24509" lon="4.37077">
        <ele>277.39999389648</ele>
        <time>2015-12-05T08:53:14.000Z</time>
      </trkpt>
      <trkpt lat="44.24515" lon="4.37079">
        <ele>277.60000610352</ele>
        <time>2015-12-05T08:53:15.000Z</time>
      </trkpt>
      <trkpt lat="44.2452" lon="4.37083">
        <ele>276.60000610352</ele>
        <time>2015-12-05T08:53:16.000Z</time>
      </trkpt>
      <trkpt lat="44.24526" lon="4.37087">
        <ele>275.60000610352</ele>
        <time>2015-12-05T08:53:17.000Z</time>
      </trkpt>
      <trkpt lat="44.24552" lon="4.37101">
        <ele>273.20001220703</ele>
        <time>2015-12-05T08:53:21.000Z</time>
      </trkpt>
      <trkpt lat="44.2456" lon="4.37103">
        <ele>273</ele>
        <time>2015-12-05T08:53:22.000Z</time>
      </trkpt>
      <trkpt lat="44.24617" lon="4.3711">
        <ele>270.79998779297</ele>
        <time>2015-12-05T08:53:30.000Z</time>
      </trkpt>
      <trkpt lat="44.24623" lon="4.37108">
        <ele>270.79998779297</ele>
        <time>2015-12-05T08:53:31.000Z</time>
      </trkpt>
      <trkpt lat="44.2463" lon="4.37105">
        <ele>270.60000610352</ele>
        <time>2015-12-05T08:53:32.000Z</time>
      </trkpt>
      <trkpt lat="44.24644" lon="4.37101">
        <ele>270</ele>
        <time>2015-12-05T08:53:34.000Z</time>
      </trkpt>
      <trkpt lat="44.2465" lon="4.37101">
        <ele>270.20001220703</ele>
        <time>2015-12-05T08:53:35.000Z</time>
      </trkpt>
      <trkpt lat="44.24667" lon="4.37099">
        <ele>271</ele>
        <time>2015-12-05T08:53:38.000Z</time>
      </trkpt>
      <trkpt lat="44.24672" lon="4.37096">
        <ele>271.39999389648</ele>
        <time>2015-12-05T08:53:39.000Z</time>
      </trkpt>
      <trkpt lat="44.24677" lon="4.37093">
        <ele>271.79998779297</ele>
        <time>2015-12-05T08:53:40.000Z</time>
      </trkpt>
      <trkpt lat="44.24682" lon="4.3709">
        <ele>271.20001220703</ele>
        <time>2015-12-05T08:53:41.000Z</time>
      </trkpt>
      <trkpt lat="44.24687" lon="4.37086">
        <ele>271</ele>
        <time>2015-12-05T08:53:42.000Z</time>
      </trkpt>
      <trkpt lat="44.24691" lon="4.37081">
        <ele>270.39999389648</ele>
        <time>2015-12-05T08:53:43.000Z</time>
      </trkpt>
      <trkpt lat="44.24711" lon="4.37063">
        <ele>267</ele>
        <time>2015-12-05T08:53:47.000Z</time>
      </trkpt>
      <trkpt lat="44.24736" lon="4.37046">
        <ele>263.20001220703</ele>
        <time>2015-12-05T08:53:51.000Z</time>
      </trkpt>
      <trkpt lat="44.24756" lon="4.37037">
        <ele>261.60000610352</ele>
        <time>2015-12-05T08:53:54.000Z</time>
      </trkpt>
      <trkpt lat="44.2476" lon="4.37036">
        <ele>262.20001220703</ele>
        <time>2015-12-05T08:53:59.000Z</time>
      </trkpt>
      <trkpt lat="44.24757" lon="4.37038">
        <ele>262.79998779297</ele>
        <time>2015-12-05T08:54:06.000Z</time>
      </trkpt>
      <trkpt lat="44.24759" lon="4.37037">
        <ele>262.60000610352</ele>
        <time>2015-12-05T08:54:07.000Z</time>
      </trkpt>
      <trkpt lat="44.24761" lon="4.37037">
        <ele>262.39999389648</ele>
        <time>2015-12-05T08:54:08.000Z</time>
      </trkpt>
      <trkpt lat="44.24762" lon="4.37038">
        <ele>262.20001220703</ele>
        <time>2015-12-05T08:54:09.000Z</time>
      </trkpt>
      <trkpt lat="44.24762" lon="4.37038">
        <ele>262</ele>
        <time>2015-12-05T08:54:10.000Z</time>
      </trkpt>
      <trkpt lat="44.24785" lon="4.37063">
        <ele>258.79998779297</ele>
        <time>2015-12-05T08:54:20.000Z</time>
      </trkpt>
      <trkpt lat="44.24794" lon="4.37082">
        <ele>258</ele>
        <time>2015-12-05T08:54:23.000Z</time>
      </trkpt>
      <trkpt lat="44.24796" lon="4.37088">
        <ele>257.79998779297</ele>
        <time>2015-12-05T08:54:24.000Z</time>
      </trkpt>
      <trkpt lat="44.24798" lon="4.37094">
        <ele>258</ele>
        <time>2015-12-05T08:54:25.000Z</time>
      </trkpt>
      <trkpt lat="44.24803" lon="4.37105">
        <ele>259.20001220703</ele>
        <time>2015-12-05T08:54:27.000Z</time>
      </trkpt>
      <trkpt lat="44.24805" lon="4.37111">
        <ele>259.20001220703</ele>
        <time>2015-12-05T08:54:28.000Z</time>
      </trkpt>
      <trkpt lat="44.24804" lon="4.37117">
        <ele>259.20001220703</ele>
        <time>2015-12-05T08:54:29.000Z</time>
      </trkpt>
      <trkpt lat="44.24803" lon="4.37123">
        <ele>259.20001220703</ele>
        <time>2015-12-05T08:54:30.000Z</time>
      </trkpt>
      <trkpt lat="44.248" lon="4.37128">
        <ele>259.20001220703</ele>
        <time>2015-12-05T08:54:31.000Z</time>
      </trkpt>
      <trkpt lat="44.24797" lon="4.37133">
        <ele>259</ele>
        <time>2015-12-05T08:54:32.000Z</time>
      </trkpt>
      <trkpt lat="44.24794" lon="4.37139">
        <ele>258.60000610352</ele>
        <time>2015-12-05T08:54:33.000Z</time>
      </trkpt>
      <trkpt lat="44.24791" lon="4.37145">
        <ele>258.60000610352</ele>
        <time>2015-12-05T08:54:34.000Z</time>
      </trkpt>
      <trkpt lat="44.24788" lon="4.37151">
        <ele>258.60000610352</ele>
        <time>2015-12-05T08:54:35.000Z</time>
      </trkpt>
      <trkpt lat="44.2478" lon="4.37172">
        <ele>256.60000610352</ele>
        <time>2015-12-05T08:54:38.000Z</time>
      </trkpt>
      <trkpt lat="44.24778" lon="4.3718">
        <ele>256</ele>
        <time>2015-12-05T08:54:39.000Z</time>
      </trkpt>
      <trkpt lat="44.24771" lon="4.37207">
        <ele>252.80000305176</ele>
        <time>2015-12-05T08:54:42.000Z</time>
      </trkpt>
      <trkpt lat="44.24767" lon="4.37215">
        <ele>251.39999389648</ele>
        <time>2015-12-05T08:54:43.000Z</time>
      </trkpt>
      <trkpt lat="44.24762" lon="4.37223">
        <ele>250.80000305176</ele>
        <time>2015-12-05T08:54:44.000Z</time>
      </trkpt>
      <trkpt lat="44.24757" lon="4.37229">
        <ele>251</ele>
        <time>2015-12-05T08:54:45.000Z</time>
      </trkpt>
      <trkpt lat="44.24753" lon="4.37234">
        <ele>251.80000305176</ele>
        <time>2015-12-05T08:54:46.000Z</time>
      </trkpt>
      <trkpt lat="44.24751" lon="4.37238">
        <ele>253.19999694824</ele>
        <time>2015-12-05T08:54:51.000Z</time>
      </trkpt>
      <trkpt lat="44.24752" lon="4.37236">
        <ele>253</ele>
        <time>2015-12-05T08:54:52.000Z</time>
      </trkpt>
      <trkpt lat="44.24754" lon="4.37234">
        <ele>252.80000305176</ele>
        <time>2015-12-05T08:54:53.000Z</time>
      </trkpt>
      <trkpt lat="44.24756" lon="4.37231">
        <ele>253</ele>
        <time>2015-12-05T08:54:54.000Z</time>
      </trkpt>
      <trkpt lat="44.24757" lon="4.37228">
        <ele>252.80000305176</ele>
        <time>2015-12-05T08:54:55.000Z</time>
      </trkpt>
      <trkpt lat="44.24767" lon="4.37211">
        <ele>254.80000305176</ele>
        <time>2015-12-05T08:55:04.000Z</time>
      </trkpt>
      <trkpt lat="44.24766" lon="4.37207">
        <ele>254.60000610352</ele>
        <time>2015-12-05T08:55:06.000Z</time>
      </trkpt>
      <trkpt lat="44.24766" lon="4.37205">
        <ele>254.80000305176</ele>
        <time>2015-12-05T08:55:07.000Z</time>
      </trkpt>
      <trkpt lat="44.24767" lon="4.37204">
        <ele>255</ele>
        <time>2015-12-05T08:55:11.000Z</time>
      </trkpt>
      <trkpt lat="44.24769" lon="4.37187">
        <ele>256.60000610352</ele>
        <time>2015-12-05T08:55:27.000Z</time>
      </trkpt>
      <trkpt lat="44.24771" lon="4.37175">
        <ele>258.20001220703</ele>
        <time>2015-12-05T08:55:46.000Z</time>
      </trkpt>
      <trkpt lat="44.24771" lon="4.37174">
        <ele>258.39999389648</ele>
        <time>2015-12-05T08:55:47.000Z</time>
      </trkpt>
      <trkpt lat="44.24771" lon="4.37174">
        <ele>258.60000610352</ele>
        <time>2015-12-05T08:55:48.000Z</time>
      </trkpt>
      <trkpt lat="44.24774" lon="4.37174">
        <ele>258.60000610352</ele>
        <time>2015-12-05T08:55:57.000Z</time>
      </trkpt>
      <trkpt lat="44.24769" lon="4.37198">
        <ele>256</ele>
        <time>2015-12-05T08:58:56.000Z</time>
      </trkpt>
      <trkpt lat="44.24769" lon="4.372">
        <ele>256</ele>
        <time>2015-12-05T08:58:57.000Z</time>
      </trkpt>
      <trkpt lat="44.24768" lon="4.37203">
        <ele>255.80000305176</ele>
        <time>2015-12-05T08:58:58.000Z</time>
      </trkpt>
      <trkpt lat="44.24767" lon="4.37207">
        <ele>255.60000610352</ele>
        <time>2015-12-05T08:58:59.000Z</time>
      </trkpt>
      <trkpt lat="44.24766" lon="4.37211">
        <ele>255.19999694824</ele>
        <time>2015-12-05T08:59:00.000Z</time>
      </trkpt>
      <trkpt lat="44.24765" lon="4.37214">
        <ele>255</ele>
        <time>2015-12-05T08:59:01.000Z</time>
      </trkpt>
      <trkpt lat="44.24757" lon="4.37228">
        <ele>253.39999389648</ele>
        <time>2015-12-05T08:59:15.000Z</time>
      </trkpt>
      <trkpt lat="44.2475" lon="4.37233">
        <ele>253.60000610352</ele>
        <time>2015-12-05T09:00:02.000Z</time>
      </trkpt>
      <trkpt lat="44.24749" lon="4.37231">
        <ele>254</ele>
        <time>2015-12-05T09:00:08.000Z</time>
      </trkpt>
      <trkpt lat="44.24741" lon="4.37234">
        <ele>254</ele>
        <time>2015-12-05T09:00:43.000Z</time>
      </trkpt>
      <trkpt lat="44.24693" lon="4.37285">
        <ele>257.39999389648</ele>
        <time>2015-12-05T09:01:15.000Z</time>
      </trkpt>
      <trkpt lat="44.24658" lon="4.37341">
        <ele>260.39999389648</ele>
        <time>2015-12-05T09:01:41.000Z</time>
      </trkpt>
      <trkpt lat="44.24614" lon="4.37376">
        <ele>263.39999389648</ele>
        <time>2015-12-05T09:02:10.000Z</time>
      </trkpt>
      <trkpt lat="44.24568" lon="4.37409">
        <ele>266.60000610352</ele>
        <time>2015-12-05T09:02:37.000Z</time>
      </trkpt>
      <trkpt lat="44.24538" lon="4.37444">
        <ele>269.60000610352</ele>
        <time>2015-12-05T09:02:56.000Z</time>
      </trkpt>
      <trkpt lat="44.24504" lon="4.37435">
        <ele>272.60000610352</ele>
        <time>2015-12-05T09:03:14.000Z</time>
      </trkpt>
      <trkpt lat="44.24466" lon="4.37451">
        <ele>275.79998779297</ele>
        <time>2015-12-05T09:03:34.000Z</time>
      </trkpt>
      <trkpt lat="44.24433" lon="4.37469">
        <ele>278.79998779297</ele>
        <time>2015-12-05T09:03:53.000Z</time>
      </trkpt>
      <trkpt lat="44.24404" lon="4.37494">
        <ele>282</ele>
        <time>2015-12-05T09:04:10.000Z</time>
      </trkpt>
      <trkpt lat="44.24382" lon="4.37517">
        <ele>285</ele>
        <time>2015-12-05T09:04:24.000Z</time>
      </trkpt>
      <trkpt lat="44.24354" lon="4.37538">
        <ele>288</ele>
        <time>2015-12-05T09:04:39.000Z</time>
      </trkpt>
      <trkpt lat="44.24331" lon="4.37556">
        <ele>291</ele>
        <time>2015-12-05T09:04:53.000Z</time>
      </trkpt>
      <trkpt lat="44.24317" lon="4.37586">
        <ele>294.20001220703</ele>
        <time>2015-12-05T09:05:06.000Z</time>
      </trkpt>
      <trkpt lat="44.24316" lon="4.37587">
        <ele>294.39999389648</ele>
        <time>2015-12-05T09:05:07.000Z</time>
      </trkpt>
      <trkpt lat="44.24319" lon="4.37594">
        <ele>295.79998779297</ele>
        <time>2015-12-05T09:05:14.000Z</time>
      </trkpt>
      <trkpt lat="44.24322" lon="4.37602">
        <ele>295.79998779297</ele>
        <time>2015-12-05T09:05:24.000Z</time>
      </trkpt>
      <trkpt lat="44.24328" lon="4.37604">
        <ele>296.39999389648</ele>
        <time>2015-12-05T09:09:41.000Z</time>
      </trkpt>
      <trkpt lat="44.2433" lon="4.37603">
        <ele>296.39999389648</ele>
        <time>2015-12-05T09:09:42.000Z</time>
      </trkpt>
      <trkpt lat="44.24387" lon="4.37592">
        <ele>297.20001220703</ele>
        <time>2015-12-05T09:10:04.000Z</time>
      </trkpt>
      <trkpt lat="44.24445" lon="4.37597">
        <ele>294.79998779297</ele>
        <time>2015-12-05T09:10:21.000Z</time>
      </trkpt>
      <trkpt lat="44.24493" lon="4.37615">
        <ele>291.60000610352</ele>
        <time>2015-12-05T09:10:30.000Z</time>
      </trkpt>
      <trkpt lat="44.24501" lon="4.37616">
        <ele>290.79998779297</ele>
        <time>2015-12-05T09:10:31.000Z</time>
      </trkpt>
      <trkpt lat="44.24508" lon="4.37616">
        <ele>289.79998779297</ele>
        <time>2015-12-05T09:10:32.000Z</time>
      </trkpt>
      <trkpt lat="44.24516" lon="4.37615">
        <ele>289.20001220703</ele>
        <time>2015-12-05T09:10:33.000Z</time>
      </trkpt>
      <trkpt lat="44.24523" lon="4.37614">
        <ele>289</ele>
        <time>2015-12-05T09:10:34.000Z</time>
      </trkpt>
      <trkpt lat="44.24538" lon="4.37608">
        <ele>289.79998779297</ele>
        <time>2015-12-05T09:10:37.000Z</time>
      </trkpt>
      <trkpt lat="44.24594" lon="4.3759">
        <ele>291.60000610352</ele>
        <time>2015-12-05T09:10:52.000Z</time>
      </trkpt>
      <trkpt lat="44.24632" lon="4.37608">
        <ele>290</ele>
        <time>2015-12-05T09:11:01.000Z</time>
      </trkpt>
      <trkpt lat="44.24636" lon="4.37612">
        <ele>289.79998779297</ele>
        <time>2015-12-05T09:11:02.000Z</time>
      </trkpt>
      <trkpt lat="44.24686" lon="4.37666">
        <ele>287</ele>
        <time>2015-12-05T09:11:13.000Z</time>
      </trkpt>
      <trkpt lat="44.24723" lon="4.37677">
        <ele>290.20001220703</ele>
        <time>2015-12-05T09:11:22.000Z</time>
      </trkpt>
      <trkpt lat="44.24777" lon="4.37649">
        <ele>292.20001220703</ele>
        <time>2015-12-05T09:11:38.000Z</time>
      </trkpt>
      <trkpt lat="44.24815" lon="4.37608">
        <ele>295.60000610352</ele>
        <time>2015-12-05T09:11:52.000Z</time>
      </trkpt>
      <trkpt lat="44.24866" lon="4.37645">
        <ele>295.79998779297</ele>
        <time>2015-12-05T09:12:14.000Z</time>
      </trkpt>
      <trkpt lat="44.24918" lon="4.3768">
        <ele>293.79998779297</ele>
        <time>2015-12-05T09:12:33.000Z</time>
      </trkpt>
      <trkpt lat="44.24958" lon="4.3769">
        <ele>292.20001220703</ele>
        <time>2015-12-05T09:12:57.000Z</time>
      </trkpt>
      <trkpt lat="44.24966" lon="4.37692">
        <ele>292.20001220703</ele>
        <time>2015-12-05T09:13:49.000Z</time>
      </trkpt>
      <trkpt lat="44.24967" lon="4.37693">
        <ele>292</ele>
        <time>2015-12-05T09:13:50.000Z</time>
      </trkpt>
      <trkpt lat="44.25018" lon="4.37728">
        <ele>291.39999389648</ele>
        <time>2015-12-05T09:14:12.000Z</time>
      </trkpt>
      <trkpt lat="44.25055" lon="4.37794">
        <ele>291.39999389648</ele>
        <time>2015-12-05T09:14:35.000Z</time>
      </trkpt>
      <trkpt lat="44.25099" lon="4.37848">
        <ele>290.39999389648</ele>
        <time>2015-12-05T09:14:55.000Z</time>
      </trkpt>
      <trkpt lat="44.25111" lon="4.3791">
        <ele>287.20001220703</ele>
        <time>2015-12-05T09:15:08.000Z</time>
      </trkpt>
      <trkpt lat="44.25123" lon="4.37936">
        <ele>284.20001220703</ele>
        <time>2015-12-05T09:15:17.000Z</time>
      </trkpt>
      <trkpt lat="44.25125" lon="4.37937">
        <ele>284</ele>
        <time>2015-12-05T09:15:18.000Z</time>
      </trkpt>
      <trkpt lat="44.25127" lon="4.3794">
        <ele>283.39999389648</ele>
        <time>2015-12-05T09:15:19.000Z</time>
      </trkpt>
      <trkpt lat="44.25129" lon="4.37943">
        <ele>283</ele>
        <time>2015-12-05T09:15:20.000Z</time>
      </trkpt>
      <trkpt lat="44.2513" lon="4.37948">
        <ele>282.39999389648</ele>
        <time>2015-12-05T09:15:21.000Z</time>
      </trkpt>
      <trkpt lat="44.25132" lon="4.37954">
        <ele>281.39999389648</ele>
        <time>2015-12-05T09:15:22.000Z</time>
      </trkpt>
      <trkpt lat="44.25141" lon="4.37984">
        <ele>278.20001220703</ele>
        <time>2015-12-05T09:15:26.000Z</time>
      </trkpt>
      <trkpt lat="44.25143" lon="4.37989">
        <ele>278</ele>
        <time>2015-12-05T09:15:27.000Z</time>
      </trkpt>
      <trkpt lat="44.25147" lon="4.37994">
        <ele>277.39999389648</ele>
        <time>2015-12-05T09:15:30.000Z</time>
      </trkpt>
      <trkpt lat="44.25148" lon="4.37994">
        <ele>277.20001220703</ele>
        <time>2015-12-05T09:15:31.000Z</time>
      </trkpt>
      <trkpt lat="44.2515" lon="4.37993">
        <ele>277</ele>
        <time>2015-12-05T09:15:32.000Z</time>
      </trkpt>
      <trkpt lat="44.25151" lon="4.37991">
        <ele>277</ele>
        <time>2015-12-05T09:15:33.000Z</time>
      </trkpt>
      <trkpt lat="44.25155" lon="4.3799">
        <ele>277.39999389648</ele>
        <time>2015-12-05T09:15:41.000Z</time>
      </trkpt>
      <trkpt lat="44.25157" lon="4.37982">
        <ele>278.20001220703</ele>
        <time>2015-12-05T09:18:42.000Z</time>
      </trkpt>
      <trkpt lat="44.25158" lon="4.3798">
        <ele>278.20001220703</ele>
        <time>2015-12-05T09:18:43.000Z</time>
      </trkpt>
      <trkpt lat="44.25157" lon="4.37935">
        <ele>281.39999389648</ele>
        <time>2015-12-05T09:19:02.000Z</time>
      </trkpt>
      <trkpt lat="44.25158" lon="4.37934">
        <ele>281.39999389648</ele>
        <time>2015-12-05T09:19:03.000Z</time>
      </trkpt>
      <trkpt lat="44.25159" lon="4.37933">
        <ele>281.39999389648</ele>
        <time>2015-12-05T09:19:04.000Z</time>
      </trkpt>
      <trkpt lat="44.25161" lon="4.37933">
        <ele>281.39999389648</ele>
        <time>2015-12-05T09:19:05.000Z</time>
      </trkpt>
      <trkpt lat="44.25163" lon="4.37932">
        <ele>281.39999389648</ele>
        <time>2015-12-05T09:19:06.000Z</time>
      </trkpt>
      <trkpt lat="44.25164" lon="4.37932">
        <ele>281</ele>
        <time>2015-12-05T09:19:07.000Z</time>
      </trkpt>
      <trkpt lat="44.25166" lon="4.37932">
        <ele>280.79998779297</ele>
        <time>2015-12-05T09:19:08.000Z</time>
      </trkpt>
      <trkpt lat="44.25169" lon="4.37932">
        <ele>280.60000610352</ele>
        <time>2015-12-05T09:19:09.000Z</time>
      </trkpt>
      <trkpt lat="44.25171" lon="4.37931">
        <ele>280.60000610352</ele>
        <time>2015-12-05T09:19:10.000Z</time>
      </trkpt>
      <trkpt lat="44.25173" lon="4.3793">
        <ele>280.39999389648</ele>
        <time>2015-12-05T09:19:11.000Z</time>
      </trkpt>
      <trkpt lat="44.25174" lon="4.37928">
        <ele>280.39999389648</ele>
        <time>2015-12-05T09:19:12.000Z</time>
      </trkpt>
      <trkpt lat="44.25175" lon="4.37925">
        <ele>280.39999389648</ele>
        <time>2015-12-05T09:19:19.000Z</time>
      </trkpt>
      <trkpt lat="44.25178" lon="4.37924">
        <ele>280.79998779297</ele>
        <time>2015-12-05T09:19:27.000Z</time>
      </trkpt>
      <trkpt lat="44.2518" lon="4.37934">
        <ele>280</ele>
        <time>2015-12-05T09:22:58.000Z</time>
      </trkpt>
      <trkpt lat="44.25183" lon="4.37935">
        <ele>279.79998779297</ele>
        <time>2015-12-05T09:22:59.000Z</time>
      </trkpt>
      <trkpt lat="44.25242" lon="4.37954">
        <ele>279</ele>
        <time>2015-12-05T09:23:14.000Z</time>
      </trkpt>
      <trkpt lat="44.25275" lon="4.37963">
        <ele>277.60000610352</ele>
        <time>2015-12-05T09:23:21.000Z</time>
      </trkpt>
      <trkpt lat="44.25279" lon="4.37967">
        <ele>277</ele>
        <time>2015-12-05T09:23:22.000Z</time>
      </trkpt>
      <trkpt lat="44.25283" lon="4.37971">
        <ele>276.79998779297</ele>
        <time>2015-12-05T09:23:23.000Z</time>
      </trkpt>
      <trkpt lat="44.25287" lon="4.37975">
        <ele>276.60000610352</ele>
        <time>2015-12-05T09:23:24.000Z</time>
      </trkpt>
      <trkpt lat="44.2529" lon="4.3798">
        <ele>276.60000610352</ele>
        <time>2015-12-05T09:23:25.000Z</time>
      </trkpt>
      <trkpt lat="44.25294" lon="4.37984">
        <ele>276.39999389648</ele>
        <time>2015-12-05T09:23:26.000Z</time>
      </trkpt>
      <trkpt lat="44.25301" lon="4.37993">
        <ele>276.20001220703</ele>
        <time>2015-12-05T09:23:28.000Z</time>
      </trkpt>
      <trkpt lat="44.25309" lon="4.38013">
        <ele>274.60000610352</ele>
        <time>2015-12-05T09:23:32.000Z</time>
      </trkpt>
      <trkpt lat="44.25325" lon="4.38049">
        <ele>274</ele>
        <time>2015-12-05T09:23:40.000Z</time>
      </trkpt>
      <trkpt lat="44.25335" lon="4.38065">
        <ele>273.20001220703</ele>
        <time>2015-12-05T09:23:44.000Z</time>
      </trkpt>
      <trkpt lat="44.25354" lon="4.3809">
        <ele>272.20001220703</ele>
        <time>2015-12-05T09:23:56.000Z</time>
      </trkpt>
      <trkpt lat="44.25356" lon="4.38092">
        <ele>272</ele>
        <time>2015-12-05T09:23:57.000Z</time>
      </trkpt>
      <trkpt lat="44.25358" lon="4.38094">
        <ele>271.79998779297</ele>
        <time>2015-12-05T09:23:58.000Z</time>
      </trkpt>
      <trkpt lat="44.2536" lon="4.38096">
        <ele>271.39999389648</ele>
        <time>2015-12-05T09:23:59.000Z</time>
      </trkpt>
      <trkpt lat="44.25362" lon="4.38099">
        <ele>271</ele>
        <time>2015-12-05T09:24:00.000Z</time>
      </trkpt>
      <trkpt lat="44.25365" lon="4.38101">
        <ele>270.79998779297</ele>
        <time>2015-12-05T09:24:01.000Z</time>
      </trkpt>
      <trkpt lat="44.25377" lon="4.3811">
        <ele>270</ele>
        <time>2015-12-05T09:24:04.000Z</time>
      </trkpt>
      <trkpt lat="44.2538" lon="4.38114">
        <ele>269.39999389648</ele>
        <time>2015-12-05T09:24:05.000Z</time>
      </trkpt>
      <trkpt lat="44.25383" lon="4.38119">
        <ele>269.20001220703</ele>
        <time>2015-12-05T09:24:06.000Z</time>
      </trkpt>
      <trkpt lat="44.25406" lon="4.38142">
        <ele>266.20001220703</ele>
        <time>2015-12-05T09:24:13.000Z</time>
      </trkpt>
      <trkpt lat="44.25457" lon="4.38173">
        <ele>263</ele>
        <time>2015-12-05T09:24:25.000Z</time>
      </trkpt>
      <trkpt lat="44.25472" lon="4.38183">
        <ele>261.79998779297</ele>
        <time>2015-12-05T09:24:28.000Z</time>
      </trkpt>
      <trkpt lat="44.25477" lon="4.38184">
        <ele>261.60000610352</ele>
        <time>2015-12-05T09:24:29.000Z</time>
      </trkpt>
      <trkpt lat="44.25482" lon="4.38185">
        <ele>261.20001220703</ele>
        <time>2015-12-05T09:24:30.000Z</time>
      </trkpt>
      <trkpt lat="44.25497" lon="4.3819">
        <ele>259.60000610352</ele>
        <time>2015-12-05T09:24:33.000Z</time>
      </trkpt>
      <trkpt lat="44.25502" lon="4.38193">
        <ele>259.20001220703</ele>
        <time>2015-12-05T09:24:34.000Z</time>
      </trkpt>
      <trkpt lat="44.25509" lon="4.38201">
        <ele>258.60000610352</ele>
        <time>2015-12-05T09:24:36.000Z</time>
      </trkpt>
      <trkpt lat="44.25512" lon="4.38205">
        <ele>258.60000610352</ele>
        <time>2015-12-05T09:24:37.000Z</time>
      </trkpt>
      <trkpt lat="44.25514" lon="4.38208">
        <ele>258.79998779297</ele>
        <time>2015-12-05T09:24:38.000Z</time>
      </trkpt>
      <trkpt lat="44.25517" lon="4.38209">
        <ele>259</ele>
        <time>2015-12-05T09:24:39.000Z</time>
      </trkpt>
      <trkpt lat="44.2552" lon="4.3821">
        <ele>259</ele>
        <time>2015-12-05T09:24:40.000Z</time>
      </trkpt>
      <trkpt lat="44.2552" lon="4.38213">
        <ele>258.79998779297</ele>
        <time>2015-12-05T09:24:50.000Z</time>
      </trkpt>
      <trkpt lat="44.25516" lon="4.38218">
        <ele>259.39999389648</ele>
        <time>2015-12-05T09:26:52.000Z</time>
      </trkpt>
      <trkpt lat="44.25515" lon="4.3822">
        <ele>259.39999389648</ele>
        <time>2015-12-05T09:26:53.000Z</time>
      </trkpt>
      <trkpt lat="44.25508" lon="4.38255">
        <ele>256.60000610352</ele>
        <time>2015-12-05T09:27:00.000Z</time>
      </trkpt>
      <trkpt lat="44.25501" lon="4.38271">
        <ele>254.19999694824</ele>
        <time>2015-12-05T09:27:02.000Z</time>
      </trkpt>
      <trkpt lat="44.25495" lon="4.38278">
        <ele>252.60000610352</ele>
        <time>2015-12-05T09:27:03.000Z</time>
      </trkpt>
      <trkpt lat="44.25487" lon="4.38284">
        <ele>251.19999694824</ele>
        <time>2015-12-05T09:27:04.000Z</time>
      </trkpt>
      <trkpt lat="44.25479" lon="4.38288">
        <ele>249.60000610352</ele>
        <time>2015-12-05T09:27:05.000Z</time>
      </trkpt>
      <trkpt lat="44.2547" lon="4.3829">
        <ele>248.19999694824</ele>
        <time>2015-12-05T09:27:06.000Z</time>
      </trkpt>
      <trkpt lat="44.2546" lon="4.38292">
        <ele>247.80000305176</ele>
        <time>2015-12-05T09:27:07.000Z</time>
      </trkpt>
      <trkpt lat="44.25451" lon="4.38293">
        <ele>247.80000305176</ele>
        <time>2015-12-05T09:27:08.000Z</time>
      </trkpt>
      <trkpt lat="44.25443" lon="4.38295">
        <ele>247.80000305176</ele>
        <time>2015-12-05T09:27:09.000Z</time>
      </trkpt>
      <trkpt lat="44.25419" lon="4.38303">
        <ele>246.39999389648</ele>
        <time>2015-12-05T09:27:12.000Z</time>
      </trkpt>
      <trkpt lat="44.25397" lon="4.38315">
        <ele>245</ele>
        <time>2015-12-05T09:27:15.000Z</time>
      </trkpt>
      <trkpt lat="44.25352" lon="4.38334">
        <ele>244.39999389648</ele>
        <time>2015-12-05T09:27:22.000Z</time>
      </trkpt>
      <trkpt lat="44.25345" lon="4.38335">
        <ele>244</ele>
        <time>2015-12-05T09:27:23.000Z</time>
      </trkpt>
      <trkpt lat="44.25331" lon="4.38334">
        <ele>243.80000305176</ele>
        <time>2015-12-05T09:27:25.000Z</time>
      </trkpt>
      <trkpt lat="44.25324" lon="4.38331">
        <ele>243.39999389648</ele>
        <time>2015-12-05T09:27:26.000Z</time>
      </trkpt>
      <trkpt lat="44.25318" lon="4.38327">
        <ele>243.19999694824</ele>
        <time>2015-12-05T09:27:27.000Z</time>
      </trkpt>
      <trkpt lat="44.25313" lon="4.3832">
        <ele>243.19999694824</ele>
        <time>2015-12-05T09:27:28.000Z</time>
      </trkpt>
      <trkpt lat="44.25309" lon="4.38313">
        <ele>243.39999389648</ele>
        <time>2015-12-05T09:27:29.000Z</time>
      </trkpt>
      <trkpt lat="44.25305" lon="4.38307">
        <ele>243.39999389648</ele>
        <time>2015-12-05T09:27:30.000Z</time>
      </trkpt>
      <trkpt lat="44.25302" lon="4.383">
        <ele>243.19999694824</ele>
        <time>2015-12-05T09:27:31.000Z</time>
      </trkpt>
      <trkpt lat="44.25298" lon="4.38293">
        <ele>243.19999694824</ele>
        <time>2015-12-05T09:27:32.000Z</time>
      </trkpt>
      <trkpt lat="44.25259" lon="4.38222">
        <ele>242</ele>
        <time>2015-12-05T09:27:43.000Z</time>
      </trkpt>
      <trkpt lat="44.25251" lon="4.38212">
        <ele>241.80000305176</ele>
        <time>2015-12-05T09:27:45.000Z</time>
      </trkpt>
      <trkpt lat="44.25246" lon="4.38207">
        <ele>241.39999389648</ele>
        <time>2015-12-05T09:27:46.000Z</time>
      </trkpt>
      <trkpt lat="44.25241" lon="4.38203">
        <ele>240.39999389648</ele>
        <time>2015-12-05T09:27:47.000Z</time>
      </trkpt>
      <trkpt lat="44.25236" lon="4.382">
        <ele>239.80000305176</ele>
        <time>2015-12-05T09:27:48.000Z</time>
      </trkpt>
      <trkpt lat="44.25231" lon="4.38198">
        <ele>239.60000610352</ele>
        <time>2015-12-05T09:27:49.000Z</time>
      </trkpt>
      <trkpt lat="44.25225" lon="4.38198">
        <ele>239.60000610352</ele>
        <time>2015-12-05T09:27:50.000Z</time>
      </trkpt>
      <trkpt lat="44.2522" lon="4.38199">
        <ele>239.60000610352</ele>
        <time>2015-12-05T09:27:51.000Z</time>
      </trkpt>
      <trkpt lat="44.25215" lon="4.38199">
        <ele>239.60000610352</ele>
        <time>2015-12-05T09:27:52.000Z</time>
      </trkpt>
      <trkpt lat="44.25177" lon="4.38192">
        <ele>239.19999694824</ele>
        <time>2015-12-05T09:28:00.000Z</time>
      </trkpt>
      <trkpt lat="44.25125" lon="4.38159">
        <ele>238.60000610352</ele>
        <time>2015-12-05T09:28:12.000Z</time>
      </trkpt>
      <trkpt lat="44.25103" lon="4.38146">
        <ele>238.19999694824</ele>
        <time>2015-12-05T09:28:17.000Z</time>
      </trkpt>
      <trkpt lat="44.25068" lon="4.38136">
        <ele>237.80000305176</ele>
        <time>2015-12-05T09:28:24.000Z</time>
      </trkpt>
      <trkpt lat="44.25064" lon="4.38133">
        <ele>237.60000610352</ele>
        <time>2015-12-05T09:28:25.000Z</time>
      </trkpt>
      <trkpt lat="44.25059" lon="4.38129">
        <ele>237.19999694824</ele>
        <time>2015-12-05T09:28:26.000Z</time>
      </trkpt>
      <trkpt lat="44.25009" lon="4.38086">
        <ele>236.19999694824</ele>
        <time>2015-12-05T09:28:38.000Z</time>
      </trkpt>
      <trkpt lat="44.24997" lon="4.38076">
        <ele>236.80000305176</ele>
        <time>2015-12-05T09:28:41.000Z</time>
      </trkpt>
      <trkpt lat="44.24973" lon="4.38078">
        <ele>236.39999389648</ele>
        <time>2015-12-05T09:28:48.000Z</time>
      </trkpt>
      <trkpt lat="44.24973" lon="4.38083">
        <ele>236.19999694824</ele>
        <time>2015-12-05T09:28:49.000Z</time>
      </trkpt>
      <trkpt lat="44.24975" lon="4.38091">
        <ele>236.39999389648</ele>
        <time>2015-12-05T09:28:50.000Z</time>
      </trkpt>
      <trkpt lat="44.24976" lon="4.38097">
        <ele>236.60000610352</ele>
        <time>2015-12-05T09:28:51.000Z</time>
      </trkpt>
      <trkpt lat="44.24977" lon="4.38104">
        <ele>236.80000305176</ele>
        <time>2015-12-05T09:28:52.000Z</time>
      </trkpt>
      <trkpt lat="44.24988" lon="4.38192">
        <ele>237</ele>
        <time>2015-12-05T09:29:08.000Z</time>
      </trkpt>
      <trkpt lat="44.24958" lon="4.3825">
        <ele>237.19999694824</ele>
        <time>2015-12-05T09:29:23.000Z</time>
      </trkpt>
      <trkpt lat="44.249" lon="4.38261">
        <ele>237</ele>
        <time>2015-12-05T09:29:39.000Z</time>
      </trkpt>
      <trkpt lat="44.24893" lon="4.38266">
        <ele>237</ele>
        <time>2015-12-05T09:29:42.000Z</time>
      </trkpt>
      <trkpt lat="44.24892" lon="4.38269">
        <ele>237</ele>
        <time>2015-12-05T09:29:43.000Z</time>
      </trkpt>
      <trkpt lat="44.24893" lon="4.38274">
        <ele>237.19999694824</ele>
        <time>2015-12-05T09:29:44.000Z</time>
      </trkpt>
      <trkpt lat="44.24895" lon="4.38279">
        <ele>237.39999389648</ele>
        <time>2015-12-05T09:29:45.000Z</time>
      </trkpt>
      <trkpt lat="44.24898" lon="4.38282">
        <ele>237.39999389648</ele>
        <time>2015-12-05T09:29:46.000Z</time>
      </trkpt>
      <trkpt lat="44.24901" lon="4.38285">
        <ele>237.60000610352</ele>
        <time>2015-12-05T09:29:47.000Z</time>
      </trkpt>
      <trkpt lat="44.24904" lon="4.38286">
        <ele>237.80000305176</ele>
        <time>2015-12-05T09:29:48.000Z</time>
      </trkpt>
      <trkpt lat="44.24907" lon="4.38288">
        <ele>237.80000305176</ele>
        <time>2015-12-05T09:29:49.000Z</time>
      </trkpt>
      <trkpt lat="44.2496" lon="4.38321">
        <ele>237.60000610352</ele>
        <time>2015-12-05T09:30:06.000Z</time>
      </trkpt>
      <trkpt lat="44.25014" lon="4.3834">
        <ele>238.19999694824</ele>
        <time>2015-12-05T09:30:23.000Z</time>
      </trkpt>
      <trkpt lat="44.25069" lon="4.38315">
        <ele>240.39999389648</ele>
        <time>2015-12-05T09:30:43.000Z</time>
      </trkpt>
      <trkpt lat="44.25082" lon="4.38323">
        <ele>239.60000610352</ele>
        <time>2015-12-05T09:30:47.000Z</time>
      </trkpt>
      <trkpt lat="44.25085" lon="4.38326">
        <ele>239.19999694824</ele>
        <time>2015-12-05T09:30:48.000Z</time>
      </trkpt>
      <trkpt lat="44.25095" lon="4.38341">
        <ele>238.19999694824</ele>
        <time>2015-12-05T09:30:51.000Z</time>
      </trkpt>
      <trkpt lat="44.25098" lon="4.38346">
        <ele>238</ele>
        <time>2015-12-05T09:30:52.000Z</time>
      </trkpt>
      <trkpt lat="44.25109" lon="4.38421">
        <ele>239</ele>
        <time>2015-12-05T09:31:08.000Z</time>
      </trkpt>
      <trkpt lat="44.25089" lon="4.38494">
        <ele>239.19999694824</ele>
        <time>2015-12-05T09:31:25.000Z</time>
      </trkpt>
      <trkpt lat="44.25062" lon="4.38563">
        <ele>239.60000610352</ele>
        <time>2015-12-05T09:31:42.000Z</time>
      </trkpt>
      <trkpt lat="44.25105" lon="4.38622">
        <ele>239</ele>
        <time>2015-12-05T09:31:57.000Z</time>
      </trkpt>
      <trkpt lat="44.25079" lon="4.38693">
        <ele>239</ele>
        <time>2015-12-05T09:32:13.000Z</time>
      </trkpt>
      <trkpt lat="44.2507" lon="4.3877">
        <ele>239.19999694824</ele>
        <time>2015-12-05T09:32:31.000Z</time>
      </trkpt>
      <trkpt lat="44.25029" lon="4.38809">
        <ele>239.60000610352</ele>
        <time>2015-12-05T09:32:49.000Z</time>
      </trkpt>
      <trkpt lat="44.24976" lon="4.38836">
        <ele>240.60000610352</ele>
        <time>2015-12-05T09:33:08.000Z</time>
      </trkpt>
      <trkpt lat="44.24914" lon="4.38842">
        <ele>241</ele>
        <time>2015-12-05T09:33:27.000Z</time>
      </trkpt>
      <trkpt lat="44.24913" lon="4.38845">
        <ele>241</ele>
        <time>2015-12-05T09:33:28.000Z</time>
      </trkpt>
      <trkpt lat="44.24912" lon="4.38848">
        <ele>241.19999694824</ele>
        <time>2015-12-05T09:33:29.000Z</time>
      </trkpt>
      <trkpt lat="44.24913" lon="4.3885">
        <ele>241.19999694824</ele>
        <time>2015-12-05T09:33:30.000Z</time>
      </trkpt>
      <trkpt lat="44.24914" lon="4.38853">
        <ele>241.19999694824</ele>
        <time>2015-12-05T09:33:31.000Z</time>
      </trkpt>
      <trkpt lat="44.24916" lon="4.38855">
        <ele>241</ele>
        <time>2015-12-05T09:33:32.000Z</time>
      </trkpt>
      <trkpt lat="44.24918" lon="4.38857">
        <ele>240.80000305176</ele>
        <time>2015-12-05T09:33:33.000Z</time>
      </trkpt>
      <trkpt lat="44.2492" lon="4.3886">
        <ele>240.80000305176</ele>
        <time>2015-12-05T09:33:34.000Z</time>
      </trkpt>
      <trkpt lat="44.24923" lon="4.38863">
        <ele>240.80000305176</ele>
        <time>2015-12-05T09:33:35.000Z</time>
      </trkpt>
      <trkpt lat="44.24974" lon="4.38908">
        <ele>241.60000610352</ele>
        <time>2015-12-05T09:33:52.000Z</time>
      </trkpt>
      <trkpt lat="44.25028" lon="4.3894">
        <ele>242.39999389648</ele>
        <time>2015-12-05T09:34:10.000Z</time>
      </trkpt>
      <trkpt lat="44.25019" lon="4.39">
        <ele>242.80000305176</ele>
        <time>2015-12-05T09:34:28.000Z</time>
      </trkpt>
      <trkpt lat="44.24959" lon="4.39018">
        <ele>242</ele>
        <time>2015-12-05T09:34:45.000Z</time>
      </trkpt>
      <trkpt lat="44.24905" lon="4.39025">
        <ele>242.60000610352</ele>
        <time>2015-12-05T09:35:02.000Z</time>
      </trkpt>
      <trkpt lat="44.24862" lon="4.3905">
        <ele>243</ele>
        <time>2015-12-05T09:35:17.000Z</time>
      </trkpt>
      <trkpt lat="44.2486" lon="4.39057">
        <ele>242.80000305176</ele>
        <time>2015-12-05T09:35:18.000Z</time>
      </trkpt>
      <trkpt lat="44.2486" lon="4.39063">
        <ele>242.60000610352</ele>
        <time>2015-12-05T09:35:19.000Z</time>
      </trkpt>
      <trkpt lat="44.24861" lon="4.39067">
        <ele>242.39999389648</ele>
        <time>2015-12-05T09:35:20.000Z</time>
      </trkpt>
      <trkpt lat="44.24863" lon="4.39072">
        <ele>242.39999389648</ele>
        <time>2015-12-05T09:35:21.000Z</time>
      </trkpt>
      <trkpt lat="44.24866" lon="4.39075">
        <ele>242.39999389648</ele>
        <time>2015-12-05T09:35:22.000Z</time>
      </trkpt>
      <trkpt lat="44.2487" lon="4.39081">
        <ele>242.39999389648</ele>
        <time>2015-12-05T09:35:23.000Z</time>
      </trkpt>
      <trkpt lat="44.24873" lon="4.39084">
        <ele>242.39999389648</ele>
        <time>2015-12-05T09:35:24.000Z</time>
      </trkpt>
      <trkpt lat="44.24875" lon="4.39088">
        <ele>242.39999389648</ele>
        <time>2015-12-05T09:35:25.000Z</time>
      </trkpt>
      <trkpt lat="44.24915" lon="4.39136">
        <ele>244.80000305176</ele>
        <time>2015-12-05T09:35:44.000Z</time>
      </trkpt>
      <trkpt lat="44.24927" lon="4.39181">
        <ele>247.80000305176</ele>
        <time>2015-12-05T09:35:58.000Z</time>
      </trkpt>
      <trkpt lat="44.24911" lon="4.39223">
        <ele>251</ele>
        <time>2015-12-05T09:36:13.000Z</time>
      </trkpt>
      <trkpt lat="44.24874" lon="4.39248">
        <ele>254</ele>
        <time>2015-12-05T09:36:31.000Z</time>
      </trkpt>
      <trkpt lat="44.24823" lon="4.39253">
        <ele>257</ele>
        <time>2015-12-05T09:36:53.000Z</time>
      </trkpt>
      <trkpt lat="44.24778" lon="4.39263">
        <ele>260</ele>
        <time>2015-12-05T09:37:12.000Z</time>
      </trkpt>
      <trkpt lat="44.24734" lon="4.3924">
        <ele>263.20001220703</ele>
        <time>2015-12-05T09:37:33.000Z</time>
      </trkpt>
      <trkpt lat="44.24703" lon="4.39191">
        <ele>266.20001220703</ele>
        <time>2015-12-05T09:37:53.000Z</time>
      </trkpt>
      <trkpt lat="44.24692" lon="4.3918">
        <ele>268.20001220703</ele>
        <time>2015-12-05T09:38:00.000Z</time>
      </trkpt>
      <trkpt lat="44.24692" lon="4.39179">
        <ele>268.39999389648</ele>
        <time>2015-12-05T09:38:01.000Z</time>
      </trkpt>
      <trkpt lat="44.24693" lon="4.39179">
        <ele>268.60000610352</ele>
        <time>2015-12-05T09:38:02.000Z</time>
      </trkpt>
      <trkpt lat="44.24693" lon="4.3918">
        <ele>268.79998779297</ele>
        <time>2015-12-05T09:38:13.000Z</time>
      </trkpt>
      <trkpt lat="44.24704" lon="4.39182">
        <ele>269.39999389648</ele>
        <time>2015-12-05T09:42:35.000Z</time>
      </trkpt>
      <trkpt lat="44.24706" lon="4.39182">
        <ele>269.39999389648</ele>
        <time>2015-12-05T09:42:36.000Z</time>
      </trkpt>
      <trkpt lat="44.24731" lon="4.39187">
        <ele>272.60000610352</ele>
        <time>2015-12-05T09:42:48.000Z</time>
      </trkpt>
      <trkpt lat="44.24755" lon="4.39169">
        <ele>275.60000610352</ele>
        <time>2015-12-05T09:43:01.000Z</time>
      </trkpt>
      <trkpt lat="44.24756" lon="4.39138">
        <ele>276.39999389648</ele>
        <time>2015-12-05T09:43:11.000Z</time>
      </trkpt>
      <trkpt lat="44.24755" lon="4.39134">
        <ele>276.39999389648</ele>
        <time>2015-12-05T09:43:12.000Z</time>
      </trkpt>
      <trkpt lat="44.24755" lon="4.3913">
        <ele>276.39999389648</ele>
        <time>2015-12-05T09:43:13.000Z</time>
      </trkpt>
      <trkpt lat="44.24749" lon="4.39109">
        <ele>277</ele>
        <time>2015-12-05T09:43:22.000Z</time>
      </trkpt>
      <trkpt lat="44.2475" lon="4.39109">
        <ele>276.79998779297</ele>
        <time>2015-12-05T09:43:27.000Z</time>
      </trkpt>
      <trkpt lat="44.24753" lon="4.39113">
        <ele>276.20001220703</ele>
        <time>2015-12-05T09:44:13.000Z</time>
      </trkpt>
      <trkpt lat="44.24754" lon="4.39113">
        <ele>276</ele>
        <time>2015-12-05T09:44:14.000Z</time>
      </trkpt>
      <trkpt lat="44.24752" lon="4.3909">
        <ele>273</ele>
        <time>2015-12-05T09:44:31.000Z</time>
      </trkpt>
      <trkpt lat="44.24749" lon="4.3908">
        <ele>271.39999389648</ele>
        <time>2015-12-05T09:44:36.000Z</time>
      </trkpt>
      <trkpt lat="44.24725" lon="4.39092">
        <ele>274.20001220703</ele>
        <time>2015-12-05T09:45:10.000Z</time>
      </trkpt>
      <trkpt lat="44.24716" lon="4.39103">
        <ele>272.20001220703</ele>
        <time>2015-12-05T09:45:22.000Z</time>
      </trkpt>
      <trkpt lat="44.24724" lon="4.39069">
        <ele>272.79998779297</ele>
        <time>2015-12-05T09:51:13.000Z</time>
      </trkpt>
      <trkpt lat="44.24726" lon="4.39072">
        <ele>272.60000610352</ele>
        <time>2015-12-05T09:51:14.000Z</time>
      </trkpt>
      <trkpt lat="44.24729" lon="4.39078">
        <ele>272.39999389648</ele>
        <time>2015-12-05T09:51:15.000Z</time>
      </trkpt>
      <trkpt lat="44.24747" lon="4.39089">
        <ele>272</ele>
        <time>2015-12-05T09:51:35.000Z</time>
      </trkpt>
      <trkpt lat="44.24748" lon="4.39091">
        <ele>272.39999389648</ele>
        <time>2015-12-05T09:51:36.000Z</time>
      </trkpt>
      <trkpt lat="44.24743" lon="4.39101">
        <ele>275.39999389648</ele>
        <time>2015-12-05T09:51:48.000Z</time>
      </trkpt>
      <trkpt lat="44.2474" lon="4.391">
        <ele>276</ele>
        <time>2015-12-05T09:51:56.000Z</time>
      </trkpt>
      <trkpt lat="44.24753" lon="4.39125">
        <ele>276.39999389648</ele>
        <time>2015-12-05T09:53:56.000Z</time>
      </trkpt>
      <trkpt lat="44.24753" lon="4.39126">
        <ele>276.39999389648</ele>
        <time>2015-12-05T09:53:57.000Z</time>
      </trkpt>
      <trkpt lat="44.24756" lon="4.39148">
        <ele>276.39999389648</ele>
        <time>2015-12-05T09:54:16.000Z</time>
      </trkpt>
      <trkpt lat="44.24759" lon="4.39159">
        <ele>276.60000610352</ele>
        <time>2015-12-05T09:56:14.000Z</time>
      </trkpt>
      <trkpt lat="44.24759" lon="4.39162">
        <ele>276.60000610352</ele>
        <time>2015-12-05T09:56:15.000Z</time>
      </trkpt>
      <trkpt lat="44.24756" lon="4.39188">
        <ele>275.60000610352</ele>
        <time>2015-12-05T09:56:22.000Z</time>
      </trkpt>
      <trkpt lat="44.24753" lon="4.39194">
        <ele>275</ele>
        <time>2015-12-05T09:56:23.000Z</time>
      </trkpt>
      <trkpt lat="44.2475" lon="4.39198">
        <ele>274.39999389648</ele>
        <time>2015-12-05T09:56:24.000Z</time>
      </trkpt>
      <trkpt lat="44.24746" lon="4.39202">
        <ele>273.79998779297</ele>
        <time>2015-12-05T09:56:25.000Z</time>
      </trkpt>
      <trkpt lat="44.2474" lon="4.39203">
        <ele>273.20001220703</ele>
        <time>2015-12-05T09:56:26.000Z</time>
      </trkpt>
      <trkpt lat="44.24734" lon="4.39202">
        <ele>272.60000610352</ele>
        <time>2015-12-05T09:56:27.000Z</time>
      </trkpt>
      <trkpt lat="44.24728" lon="4.392">
        <ele>271.39999389648</ele>
        <time>2015-12-05T09:56:28.000Z</time>
      </trkpt>
      <trkpt lat="44.2472" lon="4.39198">
        <ele>270.60000610352</ele>
        <time>2015-12-05T09:56:29.000Z</time>
      </trkpt>
      <trkpt lat="44.24713" lon="4.39198">
        <ele>269.20001220703</ele>
        <time>2015-12-05T09:56:30.000Z</time>
      </trkpt>
      <trkpt lat="44.24681" lon="4.39194">
        <ele>265.79998779297</ele>
        <time>2015-12-05T09:56:34.000Z</time>
      </trkpt>
      <trkpt lat="44.24651" lon="4.39183">
        <ele>267.60000610352</ele>
        <time>2015-12-05T09:56:39.000Z</time>
      </trkpt>
      <trkpt lat="44.2464" lon="4.39183">
        <ele>271</ele>
        <time>2015-12-05T09:56:43.000Z</time>
      </trkpt>
      <trkpt lat="44.24626" lon="4.39202">
        <ele>274.20001220703</ele>
        <time>2015-12-05T09:56:51.000Z</time>
      </trkpt>
      <trkpt lat="44.24609" lon="4.39244">
        <ele>277.39999389648</ele>
        <time>2015-12-05T09:57:08.000Z</time>
      </trkpt>
      <trkpt lat="44.24588" lon="4.39261">
        <ele>280.39999389648</ele>
        <time>2015-12-05T09:57:26.000Z</time>
      </trkpt>
      <trkpt lat="44.24572" lon="4.39283">
        <ele>283.39999389648</ele>
        <time>2015-12-05T09:57:47.000Z</time>
      </trkpt>
      <trkpt lat="44.24553" lon="4.39311">
        <ele>286.39999389648</ele>
        <time>2015-12-05T09:58:08.000Z</time>
      </trkpt>
      <trkpt lat="44.24548" lon="4.39318">
        <ele>287.39999389648</ele>
        <time>2015-12-05T09:58:13.000Z</time>
      </trkpt>
      <trkpt lat="44.2454" lon="4.39324">
        <ele>288</ele>
        <time>2015-12-05T09:58:19.000Z</time>
      </trkpt>
      <trkpt lat="44.24539" lon="4.39324">
        <ele>288.20001220703</ele>
        <time>2015-12-05T09:58:20.000Z</time>
      </trkpt>
      <trkpt lat="44.24539" lon="4.39328">
        <ele>288.60000610352</ele>
        <time>2015-12-05T09:58:25.000Z</time>
      </trkpt>
      <trkpt lat="44.2454" lon="4.39328">
        <ele>288.60000610352</ele>
        <time>2015-12-05T09:58:26.000Z</time>
      </trkpt>
      <trkpt lat="44.24543" lon="4.39327">
        <ele>288.60000610352</ele>
        <time>2015-12-05T09:58:27.000Z</time>
      </trkpt>
      <trkpt lat="44.24545" lon="4.39327">
        <ele>288.60000610352</ele>
        <time>2015-12-05T09:58:28.000Z</time>
      </trkpt>
      <trkpt lat="44.24547" lon="4.39325">
        <ele>288.39999389648</ele>
        <time>2015-12-05T09:58:29.000Z</time>
      </trkpt>
      <trkpt lat="44.24548" lon="4.39322">
        <ele>288.20001220703</ele>
        <time>2015-12-05T09:58:30.000Z</time>
      </trkpt>
      <trkpt lat="44.24551" lon="4.39319">
        <ele>288</ele>
        <time>2015-12-05T09:58:31.000Z</time>
      </trkpt>
      <trkpt lat="44.24553" lon="4.39316">
        <ele>287.79998779297</ele>
        <time>2015-12-05T09:58:32.000Z</time>
      </trkpt>
      <trkpt lat="44.24556" lon="4.39313">
        <ele>287.39999389648</ele>
        <time>2015-12-05T09:58:33.000Z</time>
      </trkpt>
      <trkpt lat="44.24575" lon="4.39286">
        <ele>284</ele>
        <time>2015-12-05T09:58:40.000Z</time>
      </trkpt>
      <trkpt lat="44.24592" lon="4.39266">
        <ele>280.39999389648</ele>
        <time>2015-12-05T09:58:44.000Z</time>
      </trkpt>
      <trkpt lat="44.24602" lon="4.39255">
        <ele>279</ele>
        <time>2015-12-05T09:58:46.000Z</time>
      </trkpt>
      <trkpt lat="44.24606" lon="4.39252">
        <ele>278.20001220703</ele>
        <time>2015-12-05T09:58:47.000Z</time>
      </trkpt>
      <trkpt lat="44.24612" lon="4.39247">
        <ele>277.20001220703</ele>
        <time>2015-12-05T09:58:49.000Z</time>
      </trkpt>
      <trkpt lat="44.24612" lon="4.39243">
        <ele>277.20001220703</ele>
        <time>2015-12-05T09:58:53.000Z</time>
      </trkpt>
      <trkpt lat="44.24611" lon="4.39243">
        <ele>277.20001220703</ele>
        <time>2015-12-05T09:58:54.000Z</time>
      </trkpt>
      <trkpt lat="44.24608" lon="4.39243">
        <ele>277.20001220703</ele>
        <time>2015-12-05T09:58:55.000Z</time>
      </trkpt>
      <trkpt lat="44.24582" lon="4.3926">
        <ele>280.39999389648</ele>
        <time>2015-12-05T09:59:06.000Z</time>
      </trkpt>
      <trkpt lat="44.24564" lon="4.39281">
        <ele>283.60000610352</ele>
        <time>2015-12-05T09:59:20.000Z</time>
      </trkpt>
      <trkpt lat="44.2455" lon="4.39308">
        <ele>286.60000610352</ele>
        <time>2015-12-05T09:59:34.000Z</time>
      </trkpt>
      <trkpt lat="44.24515" lon="4.39322">
        <ele>289.60000610352</ele>
        <time>2015-12-05T10:00:00.000Z</time>
      </trkpt>
      <trkpt lat="44.245" lon="4.39287">
        <ele>293</ele>
        <time>2015-12-05T10:00:14.000Z</time>
      </trkpt>
      <trkpt lat="44.24499" lon="4.39283">
        <ele>293.39999389648</ele>
        <time>2015-12-05T10:00:16.000Z</time>
      </trkpt>
      <trkpt lat="44.24498" lon="4.3928">
        <ele>293.79998779297</ele>
        <time>2015-12-05T10:00:17.000Z</time>
      </trkpt>
      <trkpt lat="44.24497" lon="4.39278">
        <ele>294.20001220703</ele>
        <time>2015-12-05T10:00:18.000Z</time>
      </trkpt>
      <trkpt lat="44.24496" lon="4.39275">
        <ele>294.39999389648</ele>
        <time>2015-12-05T10:00:19.000Z</time>
      </trkpt>
      <trkpt lat="44.24495" lon="4.39272">
        <ele>294.60000610352</ele>
        <time>2015-12-05T10:00:20.000Z</time>
      </trkpt>
      <trkpt lat="44.24474" lon="4.39231">
        <ele>297.79998779297</ele>
        <time>2015-12-05T10:00:37.000Z</time>
      </trkpt>
      <trkpt lat="44.24468" lon="4.39218">
        <ele>299</ele>
        <time>2015-12-05T10:00:43.000Z</time>
      </trkpt>
      <trkpt lat="44.24467" lon="4.39218">
        <ele>299.20001220703</ele>
        <time>2015-12-05T10:00:44.000Z</time>
      </trkpt>
      <trkpt lat="44.24467" lon="4.39217">
        <ele>299</ele>
        <time>2015-12-05T10:00:51.000Z</time>
      </trkpt>
      <trkpt lat="44.2446" lon="4.39211">
        <ele>299.60000610352</ele>
        <time>2015-12-05T10:01:17.000Z</time>
      </trkpt>
      <trkpt lat="44.2446" lon="4.3921">
        <ele>299.39999389648</ele>
        <time>2015-12-05T10:01:21.000Z</time>
      </trkpt>
      <trkpt lat="44.24458" lon="4.39204">
        <ele>300</ele>
        <time>2015-12-05T10:02:27.000Z</time>
      </trkpt>
      <trkpt lat="44.24457" lon="4.39202">
        <ele>300</ele>
        <time>2015-12-05T10:02:28.000Z</time>
      </trkpt>
      <trkpt lat="44.24424" lon="4.39138">
        <ele>301.60000610352</ele>
        <time>2015-12-05T10:02:51.000Z</time>
      </trkpt>
      <trkpt lat="44.24391" lon="4.39076">
        <ele>303.79998779297</ele>
        <time>2015-12-05T10:03:12.000Z</time>
      </trkpt>
      <trkpt lat="44.24374" lon="4.39033">
        <ele>306.79998779297</ele>
        <time>2015-12-05T10:03:26.000Z</time>
      </trkpt>
      <trkpt lat="44.24373" lon="4.38972">
        <ele>310</ele>
        <time>2015-12-05T10:03:45.000Z</time>
      </trkpt>
      <trkpt lat="44.24378" lon="4.38927">
        <ele>313</ele>
        <time>2015-12-05T10:03:58.000Z</time>
      </trkpt>
      <trkpt lat="44.24388" lon="4.38861">
        <ele>316</ele>
        <time>2015-12-05T10:04:23.000Z</time>
      </trkpt>
      <trkpt lat="44.24402" lon="4.38785">
        <ele>317</ele>
        <time>2015-12-05T10:04:57.000Z</time>
      </trkpt>
      <trkpt lat="44.24395" lon="4.38704">
        <ele>315</ele>
        <time>2015-12-05T10:05:24.000Z</time>
      </trkpt>
      <trkpt lat="44.24371" lon="4.38629">
        <ele>316</ele>
        <time>2015-12-05T10:05:44.000Z</time>
      </trkpt>
      <trkpt lat="44.24344" lon="4.38559">
        <ele>317.20001220703</ele>
        <time>2015-12-05T10:06:05.000Z</time>
      </trkpt>
      <trkpt lat="44.24334" lon="4.38484">
        <ele>319.20001220703</ele>
        <time>2015-12-05T10:06:31.000Z</time>
      </trkpt>
      <trkpt lat="44.2432" lon="4.38411">
        <ele>320.20001220703</ele>
        <time>2015-12-05T10:07:04.000Z</time>
      </trkpt>
      <trkpt lat="44.24319" lon="4.38409">
        <ele>320.20001220703</ele>
        <time>2015-12-05T10:07:05.000Z</time>
      </trkpt>
      <trkpt lat="44.24318" lon="4.38409">
        <ele>320.20001220703</ele>
        <time>2015-12-05T10:07:06.000Z</time>
      </trkpt>
      <trkpt lat="44.24315" lon="4.38406">
        <ele>319.79998779297</ele>
        <time>2015-12-05T10:07:14.000Z</time>
      </trkpt>
      <trkpt lat="44.24314" lon="4.38408">
        <ele>320.60000610352</ele>
        <time>2015-12-05T10:09:03.000Z</time>
      </trkpt>
      <trkpt lat="44.24312" lon="4.38409">
        <ele>320.60000610352</ele>
        <time>2015-12-05T10:09:04.000Z</time>
      </trkpt>
      <trkpt lat="44.2431" lon="4.38409">
        <ele>320.60000610352</ele>
        <time>2015-12-05T10:09:06.000Z</time>
      </trkpt>
      <trkpt lat="44.24257" lon="4.38446">
        <ele>320.20001220703</ele>
        <time>2015-12-05T10:09:35.000Z</time>
      </trkpt>
      <trkpt lat="44.24216" lon="4.38461">
        <ele>316.79998779297</ele>
        <time>2015-12-05T10:09:48.000Z</time>
      </trkpt>
      <trkpt lat="44.24193" lon="4.38478">
        <ele>313.79998779297</ele>
        <time>2015-12-05T10:09:53.000Z</time>
      </trkpt>
      <trkpt lat="44.24171" lon="4.38501">
        <ele>310.20001220703</ele>
        <time>2015-12-05T10:09:57.000Z</time>
      </trkpt>
      <trkpt lat="44.24157" lon="4.38513">
        <ele>307.60000610352</ele>
        <time>2015-12-05T10:09:59.000Z</time>
      </trkpt>
      <trkpt lat="44.24134" lon="4.3853">
        <ele>304.39999389648</ele>
        <time>2015-12-05T10:10:02.000Z</time>
      </trkpt>
      <trkpt lat="44.24118" lon="4.38539">
        <ele>302.79998779297</ele>
        <time>2015-12-05T10:10:04.000Z</time>
      </trkpt>
      <trkpt lat="44.24111" lon="4.38541">
        <ele>302.60000610352</ele>
        <time>2015-12-05T10:10:05.000Z</time>
      </trkpt>
      <trkpt lat="44.24105" lon="4.38541">
        <ele>302.60000610352</ele>
        <time>2015-12-05T10:10:06.000Z</time>
      </trkpt>
      <trkpt lat="44.24098" lon="4.38536">
        <ele>302.60000610352</ele>
        <time>2015-12-05T10:10:07.000Z</time>
      </trkpt>
      <trkpt lat="44.24092" lon="4.38531">
        <ele>302.39999389648</ele>
        <time>2015-12-05T10:10:08.000Z</time>
      </trkpt>
      <trkpt lat="44.24086" lon="4.38526">
        <ele>302</ele>
        <time>2015-12-05T10:10:09.000Z</time>
      </trkpt>
      <trkpt lat="44.24067" lon="4.38513">
        <ele>300.60000610352</ele>
        <time>2015-12-05T10:10:12.000Z</time>
      </trkpt>
      <trkpt lat="44.2405" lon="4.38495">
        <ele>300.39999389648</ele>
        <time>2015-12-05T10:10:15.000Z</time>
      </trkpt>
      <trkpt lat="44.24045" lon="4.38488">
        <ele>300.20001220703</ele>
        <time>2015-12-05T10:10:16.000Z</time>
      </trkpt>
      <trkpt lat="44.24041" lon="4.38481">
        <ele>299.79998779297</ele>
        <time>2015-12-05T10:10:17.000Z</time>
      </trkpt>
      <trkpt lat="44.24022" lon="4.38447">
        <ele>296</ele>
        <time>2015-12-05T10:10:21.000Z</time>
      </trkpt>
      <trkpt lat="44.24002" lon="4.38424">
        <ele>292</ele>
        <time>2015-12-05T10:10:24.000Z</time>
      </trkpt>
      <trkpt lat="44.23994" lon="4.38418">
        <ele>291</ele>
        <time>2015-12-05T10:10:25.000Z</time>
      </trkpt>
      <trkpt lat="44.2396" lon="4.38395">
        <ele>287.79998779297</ele>
        <time>2015-12-05T10:10:29.000Z</time>
      </trkpt>
      <trkpt lat="44.23943" lon="4.38387">
        <ele>286.60000610352</ele>
        <time>2015-12-05T10:10:31.000Z</time>
      </trkpt>
      <trkpt lat="44.23934" lon="4.38385">
        <ele>286.20001220703</ele>
        <time>2015-12-05T10:10:32.000Z</time>
      </trkpt>
      <trkpt lat="44.23925" lon="4.38383">
        <ele>285.79998779297</ele>
        <time>2015-12-05T10:10:33.000Z</time>
      </trkpt>
      <trkpt lat="44.23907" lon="4.38387">
        <ele>285.20001220703</ele>
        <time>2015-12-05T10:10:35.000Z</time>
      </trkpt>
      <trkpt lat="44.23901" lon="4.38391">
        <ele>285</ele>
        <time>2015-12-05T10:10:36.000Z</time>
      </trkpt>
      <trkpt lat="44.23895" lon="4.38401">
        <ele>284.79998779297</ele>
        <time>2015-12-05T10:10:37.000Z</time>
      </trkpt>
      <trkpt lat="44.23892" lon="4.38411">
        <ele>284.60000610352</ele>
        <time>2015-12-05T10:10:38.000Z</time>
      </trkpt>
      <trkpt lat="44.23891" lon="4.38421">
        <ele>284.60000610352</ele>
        <time>2015-12-05T10:10:39.000Z</time>
      </trkpt>
      <trkpt lat="44.2389" lon="4.3843">
        <ele>284.60000610352</ele>
        <time>2015-12-05T10:10:40.000Z</time>
      </trkpt>
      <trkpt lat="44.2389" lon="4.38439">
        <ele>285</ele>
        <time>2015-12-05T10:10:41.000Z</time>
      </trkpt>
      <trkpt lat="44.2389" lon="4.38447">
        <ele>285.60000610352</ele>
        <time>2015-12-05T10:10:42.000Z</time>
      </trkpt>
      <trkpt lat="44.23889" lon="4.38455">
        <ele>285.79998779297</ele>
        <time>2015-12-05T10:10:43.000Z</time>
      </trkpt>
      <trkpt lat="44.23889" lon="4.38469">
        <ele>286.20001220703</ele>
        <time>2015-12-05T10:10:45.000Z</time>
      </trkpt>
      <trkpt lat="44.23891" lon="4.38476">
        <ele>286.20001220703</ele>
        <time>2015-12-05T10:10:46.000Z</time>
      </trkpt>
      <trkpt lat="44.23899" lon="4.38506">
        <ele>285.39999389648</ele>
        <time>2015-12-05T10:10:51.000Z</time>
      </trkpt>
      <trkpt lat="44.23902" lon="4.38512">
        <ele>285.20001220703</ele>
        <time>2015-12-05T10:10:52.000Z</time>
      </trkpt>
      <trkpt lat="44.23913" lon="4.38534">
        <ele>284.60000610352</ele>
        <time>2015-12-05T10:10:56.000Z</time>
      </trkpt>
      <trkpt lat="44.23914" lon="4.3854">
        <ele>284.39999389648</ele>
        <time>2015-12-05T10:10:57.000Z</time>
      </trkpt>
      <trkpt lat="44.23916" lon="4.38546">
        <ele>284.20001220703</ele>
        <time>2015-12-05T10:10:58.000Z</time>
      </trkpt>
      <trkpt lat="44.23917" lon="4.38552">
        <ele>284</ele>
        <time>2015-12-05T10:10:59.000Z</time>
      </trkpt>
      <trkpt lat="44.23918" lon="4.38558">
        <ele>283.79998779297</ele>
        <time>2015-12-05T10:11:00.000Z</time>
      </trkpt>
      <trkpt lat="44.23922" lon="4.38595">
        <ele>281.79998779297</ele>
        <time>2015-12-05T10:11:05.000Z</time>
      </trkpt>
      <trkpt lat="44.23924" lon="4.38603">
        <ele>281.39999389648</ele>
        <time>2015-12-05T10:11:06.000Z</time>
      </trkpt>
      <trkpt lat="44.2393" lon="4.38617">
        <ele>280.60000610352</ele>
        <time>2015-12-05T10:11:08.000Z</time>
      </trkpt>
      <trkpt lat="44.23933" lon="4.38623">
        <ele>280.79998779297</ele>
        <time>2015-12-05T10:11:09.000Z</time>
      </trkpt>
      <trkpt lat="44.23937" lon="4.38629">
        <ele>280.60000610352</ele>
        <time>2015-12-05T10:11:10.000Z</time>
      </trkpt>
      <trkpt lat="44.23954" lon="4.38661">
        <ele>280.39999389648</ele>
        <time>2015-12-05T10:11:15.000Z</time>
      </trkpt>
      <trkpt lat="44.23956" lon="4.38669">
        <ele>280.39999389648</ele>
        <time>2015-12-05T10:11:16.000Z</time>
      </trkpt>
      <trkpt lat="44.23957" lon="4.38676">
        <ele>280.20001220703</ele>
        <time>2015-12-05T10:11:17.000Z</time>
      </trkpt>
      <trkpt lat="44.23956" lon="4.38683">
        <ele>279.79998779297</ele>
        <time>2015-12-05T10:11:18.000Z</time>
      </trkpt>
      <trkpt lat="44.23954" lon="4.38689">
        <ele>279.39999389648</ele>
        <time>2015-12-05T10:11:19.000Z</time>
      </trkpt>
      <trkpt lat="44.23951" lon="4.38696">
        <ele>279.20001220703</ele>
        <time>2015-12-05T10:11:20.000Z</time>
      </trkpt>
      <trkpt lat="44.23948" lon="4.38702">
        <ele>278.79998779297</ele>
        <time>2015-12-05T10:11:21.000Z</time>
      </trkpt>
      <trkpt lat="44.23938" lon="4.38778">
        <ele>277.20001220703</ele>
        <time>2015-12-05T10:11:40.000Z</time>
      </trkpt>
      <trkpt lat="44.23966" lon="4.38811">
        <ele>275.79998779297</ele>
        <time>2015-12-05T10:11:50.000Z</time>
      </trkpt>
      <trkpt lat="44.23984" lon="4.38829">
        <ele>275</ele>
        <time>2015-12-05T10:11:55.000Z</time>
      </trkpt>
      <trkpt lat="44.2399" lon="4.38839">
        <ele>274.60000610352</ele>
        <time>2015-12-05T10:11:57.000Z</time>
      </trkpt>
      <trkpt lat="44.23991" lon="4.38845">
        <ele>274.39999389648</ele>
        <time>2015-12-05T10:11:58.000Z</time>
      </trkpt>
      <trkpt lat="44.23994" lon="4.38851">
        <ele>274.20001220703</ele>
        <time>2015-12-05T10:11:59.000Z</time>
      </trkpt>
      <trkpt lat="44.24013" lon="4.38887">
        <ele>271.79998779297</ele>
        <time>2015-12-05T10:12:05.000Z</time>
      </trkpt>
      <trkpt lat="44.24048" lon="4.38922">
        <ele>268.60000610352</ele>
        <time>2015-12-05T10:12:12.000Z</time>
      </trkpt>
      <trkpt lat="44.24059" lon="4.38932">
        <ele>267.79998779297</ele>
        <time>2015-12-05T10:12:14.000Z</time>
      </trkpt>
      <trkpt lat="44.24063" lon="4.38938">
        <ele>267.20001220703</ele>
        <time>2015-12-05T10:12:15.000Z</time>
      </trkpt>
      <trkpt lat="44.24067" lon="4.38944">
        <ele>266.79998779297</ele>
        <time>2015-12-05T10:12:16.000Z</time>
      </trkpt>
      <trkpt lat="44.24071" lon="4.38951">
        <ele>266.60000610352</ele>
        <time>2015-12-05T10:12:17.000Z</time>
      </trkpt>
      <trkpt lat="44.24102" lon="4.39004">
        <ele>264</ele>
        <time>2015-12-05T10:12:24.000Z</time>
      </trkpt>
      <trkpt lat="44.24122" lon="4.39029">
        <ele>262.60000610352</ele>
        <time>2015-12-05T10:12:28.000Z</time>
      </trkpt>
      <trkpt lat="44.24142" lon="4.39049">
        <ele>262</ele>
        <time>2015-12-05T10:12:32.000Z</time>
      </trkpt>
      <trkpt lat="44.24145" lon="4.39055">
        <ele>261.60000610352</ele>
        <time>2015-12-05T10:12:33.000Z</time>
      </trkpt>
      <trkpt lat="44.24148" lon="4.39063">
        <ele>261.20001220703</ele>
        <time>2015-12-05T10:12:34.000Z</time>
      </trkpt>
      <trkpt lat="44.2415" lon="4.39071">
        <ele>261</ele>
        <time>2015-12-05T10:12:35.000Z</time>
      </trkpt>
      <trkpt lat="44.2415" lon="4.39079">
        <ele>260.79998779297</ele>
        <time>2015-12-05T10:12:36.000Z</time>
      </trkpt>
      <trkpt lat="44.2415" lon="4.39087">
        <ele>260.60000610352</ele>
        <time>2015-12-05T10:12:37.000Z</time>
      </trkpt>
      <trkpt lat="44.24149" lon="4.39096">
        <ele>260.20001220703</ele>
        <time>2015-12-05T10:12:38.000Z</time>
      </trkpt>
      <trkpt lat="44.24147" lon="4.39104">
        <ele>259.79998779297</ele>
        <time>2015-12-05T10:12:39.000Z</time>
      </trkpt>
      <trkpt lat="44.24145" lon="4.39112">
        <ele>259.20001220703</ele>
        <time>2015-12-05T10:12:40.000Z</time>
      </trkpt>
      <trkpt lat="44.24144" lon="4.3912">
        <ele>259</ele>
        <time>2015-12-05T10:12:41.000Z</time>
      </trkpt>
      <trkpt lat="44.24134" lon="4.39189">
        <ele>258.20001220703</ele>
        <time>2015-12-05T10:12:49.000Z</time>
      </trkpt>
      <trkpt lat="44.24133" lon="4.39197">
        <ele>258</ele>
        <time>2015-12-05T10:12:50.000Z</time>
      </trkpt>
      <trkpt lat="44.24131" lon="4.39205">
        <ele>257.60000610352</ele>
        <time>2015-12-05T10:12:51.000Z</time>
      </trkpt>
      <trkpt lat="44.24111" lon="4.39256">
        <ele>255.60000610352</ele>
        <time>2015-12-05T10:12:58.000Z</time>
      </trkpt>
      <trkpt lat="44.24104" lon="4.39264">
        <ele>255.60000610352</ele>
        <time>2015-12-05T10:13:00.000Z</time>
      </trkpt>
      <trkpt lat="44.24052" lon="4.39244">
        <ele>258.39999389648</ele>
        <time>2015-12-05T10:13:31.000Z</time>
      </trkpt>
      <trkpt lat="44.24047" lon="4.39244">
        <ele>258.60000610352</ele>
        <time>2015-12-05T10:13:35.000Z</time>
      </trkpt>
      <trkpt lat="44.24047" lon="4.39247">
        <ele>258.60000610352</ele>
        <time>2015-12-05T10:13:38.000Z</time>
      </trkpt>
      <trkpt lat="44.24048" lon="4.39248">
        <ele>258.60000610352</ele>
        <time>2015-12-05T10:13:39.000Z</time>
      </trkpt>
      <trkpt lat="44.24049" lon="4.39248">
        <ele>258.39999389648</ele>
        <time>2015-12-05T10:13:40.000Z</time>
      </trkpt>
      <trkpt lat="44.24051" lon="4.39248">
        <ele>258.39999389648</ele>
        <time>2015-12-05T10:13:41.000Z</time>
      </trkpt>
      <trkpt lat="44.24052" lon="4.39248">
        <ele>258.20001220703</ele>
        <time>2015-12-05T10:13:42.000Z</time>
      </trkpt>
      <trkpt lat="44.24054" lon="4.39248">
        <ele>258.20001220703</ele>
        <time>2015-12-05T10:13:44.000Z</time>
      </trkpt>
      <trkpt lat="44.24055" lon="4.39249">
        <ele>258.20001220703</ele>
        <time>2015-12-05T10:13:45.000Z</time>
      </trkpt>
      <trkpt lat="44.24056" lon="4.39249">
        <ele>258.20001220703</ele>
        <time>2015-12-05T10:13:46.000Z</time>
      </trkpt>
      <trkpt lat="44.24057" lon="4.39249">
        <ele>258.20001220703</ele>
        <time>2015-12-05T10:13:47.000Z</time>
      </trkpt>
      <trkpt lat="44.24058" lon="4.39249">
        <ele>258</ele>
        <time>2015-12-05T10:13:48.000Z</time>
      </trkpt>
      <trkpt lat="44.24059" lon="4.39249">
        <ele>258</ele>
        <time>2015-12-05T10:13:49.000Z</time>
      </trkpt>
      <trkpt lat="44.2406" lon="4.39249">
        <ele>258</ele>
        <time>2015-12-05T10:13:56.000Z</time>
      </trkpt>
      <trkpt lat="44.24057" lon="4.39246">
        <ele>258.39999389648</ele>
        <time>2015-12-05T10:15:50.000Z</time>
      </trkpt>
      <trkpt lat="44.24056" lon="4.39246">
        <ele>258.39999389648</ele>
        <time>2015-12-05T10:15:51.000Z</time>
      </trkpt>
      <trkpt lat="44.24045" lon="4.39242">
        <ele>259.39999389648</ele>
        <time>2015-12-05T10:16:00.000Z</time>
      </trkpt>
      <trkpt lat="44.24043" lon="4.39243">
        <ele>259.60000610352</ele>
        <time>2015-12-05T10:16:01.000Z</time>
      </trkpt>
      <trkpt lat="44.23984" lon="4.39259">
        <ele>262.39999389648</ele>
        <time>2015-12-05T10:16:38.000Z</time>
      </trkpt>
      <trkpt lat="44.23939" lon="4.39244">
        <ele>265.39999389648</ele>
        <time>2015-12-05T10:17:03.000Z</time>
      </trkpt>
      <trkpt lat="44.23951" lon="4.39193">
        <ele>268.60000610352</ele>
        <time>2015-12-05T10:17:26.000Z</time>
      </trkpt>
      <trkpt lat="44.23966" lon="4.39156">
        <ele>271.79998779297</ele>
        <time>2015-12-05T10:17:44.000Z</time>
      </trkpt>
      <trkpt lat="44.2397" lon="4.39132">
        <ele>273</ele>
        <time>2015-12-05T10:18:01.000Z</time>
      </trkpt>
      <trkpt lat="44.23969" lon="4.39134">
        <ele>272.79998779297</ele>
        <time>2015-12-05T10:18:02.000Z</time>
      </trkpt>
      <trkpt lat="44.23965" lon="4.39141">
        <ele>272.20001220703</ele>
        <time>2015-12-05T10:18:17.000Z</time>
      </trkpt>
      <trkpt lat="44.23967" lon="4.39148">
        <ele>272.60000610352</ele>
        <time>2015-12-05T10:19:32.000Z</time>
      </trkpt>
      <trkpt lat="44.23965" lon="4.39146">
        <ele>272.20001220703</ele>
        <time>2015-12-05T10:19:36.000Z</time>
      </trkpt>
      <trkpt lat="44.23965" lon="4.39144">
        <ele>272.20001220703</ele>
        <time>2015-12-05T10:19:37.000Z</time>
      </trkpt>
      <trkpt lat="44.23967" lon="4.39141">
        <ele>272.20001220703</ele>
        <time>2015-12-05T10:19:42.000Z</time>
      </trkpt>
      <trkpt lat="44.23968" lon="4.39139">
        <ele>272.39999389648</ele>
        <time>2015-12-05T10:19:43.000Z</time>
      </trkpt>
      <trkpt lat="44.23969" lon="4.39135">
        <ele>272.39999389648</ele>
        <time>2015-12-05T10:19:44.000Z</time>
      </trkpt>
      <trkpt lat="44.2397" lon="4.39131">
        <ele>272.39999389648</ele>
        <time>2015-12-05T10:19:45.000Z</time>
      </trkpt>
      <trkpt lat="44.23971" lon="4.39126">
        <ele>272.39999389648</ele>
        <time>2015-12-05T10:19:46.000Z</time>
      </trkpt>
      <trkpt lat="44.23972" lon="4.39121">
        <ele>272.39999389648</ele>
        <time>2015-12-05T10:19:47.000Z</time>
      </trkpt>
      <trkpt lat="44.23972" lon="4.39109">
        <ele>272.79998779297</ele>
        <time>2015-12-05T10:19:49.000Z</time>
      </trkpt>
      <trkpt lat="44.23971" lon="4.39102">
        <ele>273.20001220703</ele>
        <time>2015-12-05T10:19:50.000Z</time>
      </trkpt>
      <trkpt lat="44.23969" lon="4.3909">
        <ele>273.60000610352</ele>
        <time>2015-12-05T10:19:52.000Z</time>
      </trkpt>
      <trkpt lat="44.23968" lon="4.39085">
        <ele>273.60000610352</ele>
        <time>2015-12-05T10:19:53.000Z</time>
      </trkpt>
      <trkpt lat="44.23967" lon="4.39079">
        <ele>273.79998779297</ele>
        <time>2015-12-05T10:19:54.000Z</time>
      </trkpt>
      <trkpt lat="44.23964" lon="4.39074">
        <ele>274.39999389648</ele>
        <time>2015-12-05T10:19:55.000Z</time>
      </trkpt>
      <trkpt lat="44.23962" lon="4.39068">
        <ele>275</ele>
        <time>2015-12-05T10:19:56.000Z</time>
      </trkpt>
      <trkpt lat="44.23959" lon="4.39062">
        <ele>275.39999389648</ele>
        <time>2015-12-05T10:19:57.000Z</time>
      </trkpt>
      <trkpt lat="44.23955" lon="4.39054">
        <ele>275.60000610352</ele>
        <time>2015-12-05T10:19:58.000Z</time>
      </trkpt>
      <trkpt lat="44.23907" lon="4.38998">
        <ele>278.39999389648</ele>
        <time>2015-12-05T10:20:11.000Z</time>
      </trkpt>
      <trkpt lat="44.23903" lon="4.38996">
        <ele>278.39999389648</ele>
        <time>2015-12-05T10:20:12.000Z</time>
      </trkpt>
      <trkpt lat="44.23878" lon="4.38982">
        <ele>278.79998779297</ele>
        <time>2015-12-05T10:20:17.000Z</time>
      </trkpt>
      <trkpt lat="44.23873" lon="4.38978">
        <ele>278.79998779297</ele>
        <time>2015-12-05T10:20:18.000Z</time>
      </trkpt>
      <trkpt lat="44.23841" lon="4.38965">
        <ele>281.39999389648</ele>
        <time>2015-12-05T10:20:25.000Z</time>
      </trkpt>
      <trkpt lat="44.23837" lon="4.38964">
        <ele>281.79998779297</ele>
        <time>2015-12-05T10:20:26.000Z</time>
      </trkpt>
      <trkpt lat="44.23833" lon="4.38963">
        <ele>282.20001220703</ele>
        <time>2015-12-05T10:20:27.000Z</time>
      </trkpt>
      <trkpt lat="44.23829" lon="4.38961">
        <ele>282.39999389648</ele>
        <time>2015-12-05T10:20:28.000Z</time>
      </trkpt>
      <trkpt lat="44.23826" lon="4.38959">
        <ele>282.60000610352</ele>
        <time>2015-12-05T10:20:29.000Z</time>
      </trkpt>
      <trkpt lat="44.23823" lon="4.38957">
        <ele>282.79998779297</ele>
        <time>2015-12-05T10:20:30.000Z</time>
      </trkpt>
      <trkpt lat="44.2382" lon="4.38956">
        <ele>283</ele>
        <time>2015-12-05T10:20:31.000Z</time>
      </trkpt>
      <trkpt lat="44.23817" lon="4.38955">
        <ele>283.20001220703</ele>
        <time>2015-12-05T10:20:32.000Z</time>
      </trkpt>
      <trkpt lat="44.23815" lon="4.38955">
        <ele>283.39999389648</ele>
        <time>2015-12-05T10:20:33.000Z</time>
      </trkpt>
      <trkpt lat="44.2378" lon="4.38901">
        <ele>286</ele>
        <time>2015-12-05T10:20:55.000Z</time>
      </trkpt>
      <trkpt lat="44.23787" lon="4.38823">
        <ele>288.79998779297</ele>
        <time>2015-12-05T10:21:18.000Z</time>
      </trkpt>
      <trkpt lat="44.23797" lon="4.38747">
        <ele>291.60000610352</ele>
        <time>2015-12-05T10:21:42.000Z</time>
      </trkpt>
      <trkpt lat="44.23792" lon="4.38673">
        <ele>293</ele>
        <time>2015-12-05T10:22:06.000Z</time>
      </trkpt>
      <trkpt lat="44.23768" lon="4.38598">
        <ele>295.20001220703</ele>
        <time>2015-12-05T10:22:28.000Z</time>
      </trkpt>
      <trkpt lat="44.23724" lon="4.38546">
        <ele>298.20001220703</ele>
        <time>2015-12-05T10:22:49.000Z</time>
      </trkpt>
      <trkpt lat="44.23702" lon="4.38528">
        <ele>300.20001220703</ele>
        <time>2015-12-05T10:23:04.000Z</time>
      </trkpt>
      <trkpt lat="44.23701" lon="4.38528">
        <ele>300.39999389648</ele>
        <time>2015-12-05T10:23:05.000Z</time>
      </trkpt>
      <trkpt lat="44.237" lon="4.38528">
        <ele>300.60000610352</ele>
        <time>2015-12-05T10:23:06.000Z</time>
      </trkpt>
      <trkpt lat="44.23698" lon="4.38529">
        <ele>300.79998779297</ele>
        <time>2015-12-05T10:23:13.000Z</time>
      </trkpt>
      <trkpt lat="44.23693" lon="4.38533">
        <ele>301.20001220703</ele>
        <time>2015-12-05T10:23:29.000Z</time>
      </trkpt>
      <trkpt lat="44.23692" lon="4.38535">
        <ele>301.20001220703</ele>
        <time>2015-12-05T10:23:30.000Z</time>
      </trkpt>
      <trkpt lat="44.23694" lon="4.38539">
        <ele>301.39999389648</ele>
        <time>2015-12-05T10:23:37.000Z</time>
      </trkpt>
      <trkpt lat="44.23696" lon="4.38537">
        <ele>301.20001220703</ele>
        <time>2015-12-05T10:23:38.000Z</time>
      </trkpt>
      <trkpt lat="44.23705" lon="4.38534">
        <ele>300</ele>
        <time>2015-12-05T10:23:41.000Z</time>
      </trkpt>
      <trkpt lat="44.23709" lon="4.38536">
        <ele>299.60000610352</ele>
        <time>2015-12-05T10:23:42.000Z</time>
      </trkpt>
      <trkpt lat="44.23714" lon="4.38539">
        <ele>298.79998779297</ele>
        <time>2015-12-05T10:23:43.000Z</time>
      </trkpt>
      <trkpt lat="44.23719" lon="4.38544">
        <ele>298.39999389648</ele>
        <time>2015-12-05T10:23:44.000Z</time>
      </trkpt>
      <trkpt lat="44.23724" lon="4.38549">
        <ele>298.20001220703</ele>
        <time>2015-12-05T10:23:45.000Z</time>
      </trkpt>
      <trkpt lat="44.23739" lon="4.38566">
        <ele>296</ele>
        <time>2015-12-05T10:23:48.000Z</time>
      </trkpt>
      <trkpt lat="44.23746" lon="4.38578">
        <ele>295.20001220703</ele>
        <time>2015-12-05T10:23:50.000Z</time>
      </trkpt>
      <trkpt lat="44.23756" lon="4.38587">
        <ele>296.20001220703</ele>
        <time>2015-12-05T10:23:56.000Z</time>
      </trkpt>
      <trkpt lat="44.23756" lon="4.38585">
        <ele>296.20001220703</ele>
        <time>2015-12-05T10:23:57.000Z</time>
      </trkpt>
      <trkpt lat="44.23755" lon="4.38583">
        <ele>296</ele>
        <time>2015-12-05T10:23:58.000Z</time>
      </trkpt>
      <trkpt lat="44.23754" lon="4.38581">
        <ele>296</ele>
        <time>2015-12-05T10:23:59.000Z</time>
      </trkpt>
      <trkpt lat="44.23752" lon="4.38579">
        <ele>296.20001220703</ele>
        <time>2015-12-05T10:24:00.000Z</time>
      </trkpt>
      <trkpt lat="44.23712" lon="4.38539">
        <ele>299.20001220703</ele>
        <time>2015-12-05T10:24:25.000Z</time>
      </trkpt>
      <trkpt lat="44.23694" lon="4.38522">
        <ele>300.79998779297</ele>
        <time>2015-12-05T10:24:39.000Z</time>
      </trkpt>
      <trkpt lat="44.23693" lon="4.38522">
        <ele>301</ele>
        <time>2015-12-05T10:24:40.000Z</time>
      </trkpt>
      <trkpt lat="44.23693" lon="4.38526">
        <ele>301</ele>
        <time>2015-12-05T10:24:43.000Z</time>
      </trkpt>
      <trkpt lat="44.23692" lon="4.38527">
        <ele>301</ele>
        <time>2015-12-05T10:24:44.000Z</time>
      </trkpt>
      <trkpt lat="44.23691" lon="4.38527">
        <ele>301</ele>
        <time>2015-12-05T10:24:45.000Z</time>
      </trkpt>
      <trkpt lat="44.2369" lon="4.38527">
        <ele>301.20001220703</ele>
        <time>2015-12-05T10:24:46.000Z</time>
      </trkpt>
      <trkpt lat="44.2369" lon="4.38526">
        <ele>301.20001220703</ele>
        <time>2015-12-05T10:24:47.000Z</time>
      </trkpt>
      <trkpt lat="44.23691" lon="4.38519">
        <ele>301.20001220703</ele>
        <time>2015-12-05T10:24:52.000Z</time>
      </trkpt>
      <trkpt lat="44.23692" lon="4.38519">
        <ele>301.20001220703</ele>
        <time>2015-12-05T10:24:53.000Z</time>
      </trkpt>
      <trkpt lat="44.23694" lon="4.38519">
        <ele>301</ele>
        <time>2015-12-05T10:24:54.000Z</time>
      </trkpt>
      <trkpt lat="44.23694" lon="4.38521">
        <ele>301</ele>
        <time>2015-12-05T10:24:55.000Z</time>
      </trkpt>
      <trkpt lat="44.23694" lon="4.38522">
        <ele>301</ele>
        <time>2015-12-05T10:24:56.000Z</time>
      </trkpt>
      <trkpt lat="44.23694" lon="4.38524">
        <ele>301</ele>
        <time>2015-12-05T10:24:57.000Z</time>
      </trkpt>
      <trkpt lat="44.23693" lon="4.38525">
        <ele>301</ele>
        <time>2015-12-05T10:24:58.000Z</time>
      </trkpt>
      <trkpt lat="44.23692" lon="4.38526">
        <ele>301</ele>
        <time>2015-12-05T10:24:59.000Z</time>
      </trkpt>
      <trkpt lat="44.23691" lon="4.3853">
        <ele>301.20001220703</ele>
        <time>2015-12-05T10:25:03.000Z</time>
      </trkpt>
      <trkpt lat="44.23693" lon="4.38528">
        <ele>301.20001220703</ele>
        <time>2015-12-05T10:25:05.000Z</time>
      </trkpt>
      <trkpt lat="44.23693" lon="4.38526">
        <ele>301.20001220703</ele>
        <time>2015-12-05T10:25:06.000Z</time>
      </trkpt>
      <trkpt lat="44.23693" lon="4.38531">
        <ele>301.20001220703</ele>
        <time>2015-12-05T10:25:11.000Z</time>
      </trkpt>
      <trkpt lat="44.23686" lon="4.3856">
        <ele>301.60000610352</ele>
        <time>2015-12-05T10:25:25.000Z</time>
      </trkpt>
      <trkpt lat="44.23687" lon="4.38558">
        <ele>301.79998779297</ele>
        <time>2015-12-05T10:25:28.000Z</time>
      </trkpt>
      <trkpt lat="44.23687" lon="4.38556">
        <ele>301.79998779297</ele>
        <time>2015-12-05T10:25:29.000Z</time>
      </trkpt>
      <trkpt lat="44.23686" lon="4.38555">
        <ele>301.60000610352</ele>
        <time>2015-12-05T10:25:34.000Z</time>
      </trkpt>
      <trkpt lat="44.23685" lon="4.38558">
        <ele>301.60000610352</ele>
        <time>2015-12-05T10:25:35.000Z</time>
      </trkpt>
      <trkpt lat="44.23649" lon="4.38622">
        <ele>301.79998779297</ele>
        <time>2015-12-05T10:25:56.000Z</time>
      </trkpt>
      <trkpt lat="44.23598" lon="4.38657">
        <ele>302.20001220703</ele>
        <time>2015-12-05T10:26:16.000Z</time>
      </trkpt>
      <trkpt lat="44.23542" lon="4.38676">
        <ele>302.60000610352</ele>
        <time>2015-12-05T10:26:35.000Z</time>
      </trkpt>
      <trkpt lat="44.23486" lon="4.38696">
        <ele>303.60000610352</ele>
        <time>2015-12-05T10:26:54.000Z</time>
      </trkpt>
      <trkpt lat="44.23434" lon="4.38719">
        <ele>304.39999389648</ele>
        <time>2015-12-05T10:27:12.000Z</time>
      </trkpt>
      <trkpt lat="44.23376" lon="4.38687">
        <ele>306.79998779297</ele>
        <time>2015-12-05T10:27:31.000Z</time>
      </trkpt>
      <trkpt lat="44.23318" lon="4.38695">
        <ele>307.79998779297</ele>
        <time>2015-12-05T10:27:51.000Z</time>
      </trkpt>
      <trkpt lat="44.23265" lon="4.38669">
        <ele>307.39999389648</ele>
        <time>2015-12-05T10:28:09.000Z</time>
      </trkpt>
      <trkpt lat="44.23222" lon="4.38649">
        <ele>308.20001220703</ele>
        <time>2015-12-05T10:28:31.000Z</time>
      </trkpt>
      <trkpt lat="44.23223" lon="4.38648">
        <ele>308.20001220703</ele>
        <time>2015-12-05T10:28:32.000Z</time>
      </trkpt>
      <trkpt lat="44.23224" lon="4.38647">
        <ele>308.20001220703</ele>
        <time>2015-12-05T10:28:33.000Z</time>
      </trkpt>
      <trkpt lat="44.23267" lon="4.38587">
        <ele>307.39999389648</ele>
        <time>2015-12-05T10:29:11.000Z</time>
      </trkpt>
      <trkpt lat="44.2329" lon="4.38579">
        <ele>305</ele>
        <time>2015-12-05T10:29:17.000Z</time>
      </trkpt>
      <trkpt lat="44.23297" lon="4.38574">
        <ele>304.39999389648</ele>
        <time>2015-12-05T10:29:19.000Z</time>
      </trkpt>
      <trkpt lat="44.23302" lon="4.3857">
        <ele>304</ele>
        <time>2015-12-05T10:29:20.000Z</time>
      </trkpt>
      <trkpt lat="44.23321" lon="4.38561">
        <ele>302.79998779297</ele>
        <time>2015-12-05T10:29:24.000Z</time>
      </trkpt>
      <trkpt lat="44.23325" lon="4.3856">
        <ele>302.79998779297</ele>
        <time>2015-12-05T10:29:25.000Z</time>
      </trkpt>
      <trkpt lat="44.23337" lon="4.38553">
        <ele>303</ele>
        <time>2015-12-05T10:29:28.000Z</time>
      </trkpt>
      <trkpt lat="44.2334" lon="4.3855">
        <ele>303.20001220703</ele>
        <time>2015-12-05T10:29:29.000Z</time>
      </trkpt>
      <trkpt lat="44.23344" lon="4.38548">
        <ele>303.20001220703</ele>
        <time>2015-12-05T10:29:30.000Z</time>
      </trkpt>
      <trkpt lat="44.23406" lon="4.38536">
        <ele>304.39999389648</ele>
        <time>2015-12-05T10:29:54.000Z</time>
      </trkpt>
      <trkpt lat="44.23471" lon="4.38541">
        <ele>305</ele>
        <time>2015-12-05T10:30:19.000Z</time>
      </trkpt>
      <trkpt lat="44.2349" lon="4.38478">
        <ele>302.79998779297</ele>
        <time>2015-12-05T10:30:42.000Z</time>
      </trkpt>
      <trkpt lat="44.23486" lon="4.38471">
        <ele>302.39999389648</ele>
        <time>2015-12-05T10:30:47.000Z</time>
      </trkpt>
      <trkpt lat="44.23474" lon="4.38467">
        <ele>302</ele>
        <time>2015-12-05T10:30:54.000Z</time>
      </trkpt>
      <trkpt lat="44.23473" lon="4.38465">
        <ele>301.79998779297</ele>
        <time>2015-12-05T10:30:55.000Z</time>
      </trkpt>
      <trkpt lat="44.23473" lon="4.38462">
        <ele>301.79998779297</ele>
        <time>2015-12-05T10:30:56.000Z</time>
      </trkpt>
      <trkpt lat="44.23474" lon="4.3846">
        <ele>301.79998779297</ele>
        <time>2015-12-05T10:30:57.000Z</time>
      </trkpt>
      <trkpt lat="44.23474" lon="4.38458">
        <ele>301.60000610352</ele>
        <time>2015-12-05T10:30:58.000Z</time>
      </trkpt>
      <trkpt lat="44.23475" lon="4.38456">
        <ele>301.60000610352</ele>
        <time>2015-12-05T10:30:59.000Z</time>
      </trkpt>
      <trkpt lat="44.23474" lon="4.38454">
        <ele>301.60000610352</ele>
        <time>2015-12-05T10:31:00.000Z</time>
      </trkpt>
      <trkpt lat="44.23474" lon="4.38451">
        <ele>301.20001220703</ele>
        <time>2015-12-05T10:31:01.000Z</time>
      </trkpt>
      <trkpt lat="44.23474" lon="4.38448">
        <ele>301</ele>
        <time>2015-12-05T10:31:02.000Z</time>
      </trkpt>
      <trkpt lat="44.23471" lon="4.38446">
        <ele>300.79998779297</ele>
        <time>2015-12-05T10:31:03.000Z</time>
      </trkpt>
      <trkpt lat="44.23469" lon="4.38443">
        <ele>300.39999389648</ele>
        <time>2015-12-05T10:31:04.000Z</time>
      </trkpt>
      <trkpt lat="44.23467" lon="4.38442">
        <ele>300.20001220703</ele>
        <time>2015-12-05T10:31:05.000Z</time>
      </trkpt>
      <trkpt lat="44.23465" lon="4.3844">
        <ele>300</ele>
        <time>2015-12-05T10:31:06.000Z</time>
      </trkpt>
      <trkpt lat="44.2346" lon="4.38438">
        <ele>299.79998779297</ele>
        <time>2015-12-05T10:31:07.000Z</time>
      </trkpt>
      <trkpt lat="44.23419" lon="4.38406">
        <ele>300</ele>
        <time>2015-12-05T10:31:23.000Z</time>
      </trkpt>
      <trkpt lat="44.23419" lon="4.38402">
        <ele>300</ele>
        <time>2015-12-05T10:31:24.000Z</time>
      </trkpt>
      <trkpt lat="44.2342" lon="4.38399">
        <ele>300</ele>
        <time>2015-12-05T10:31:25.000Z</time>
      </trkpt>
      <trkpt lat="44.23421" lon="4.38396">
        <ele>299.79998779297</ele>
        <time>2015-12-05T10:31:26.000Z</time>
      </trkpt>
      <trkpt lat="44.23422" lon="4.38394">
        <ele>299.79998779297</ele>
        <time>2015-12-05T10:31:27.000Z</time>
      </trkpt>
      <trkpt lat="44.23425" lon="4.38393">
        <ele>299.60000610352</ele>
        <time>2015-12-05T10:31:28.000Z</time>
      </trkpt>
      <trkpt lat="44.23427" lon="4.38392">
        <ele>299.79998779297</ele>
        <time>2015-12-05T10:31:29.000Z</time>
      </trkpt>
      <trkpt lat="44.2343" lon="4.38391">
        <ele>299.60000610352</ele>
        <time>2015-12-05T10:31:30.000Z</time>
      </trkpt>
      <trkpt lat="44.23432" lon="4.3839">
        <ele>299.20001220703</ele>
        <time>2015-12-05T10:31:31.000Z</time>
      </trkpt>
      <trkpt lat="44.23486" lon="4.3836">
        <ele>298.39999389648</ele>
        <time>2015-12-05T10:31:51.000Z</time>
      </trkpt>
      <trkpt lat="44.23492" lon="4.38351">
        <ele>298.39999389648</ele>
        <time>2015-12-05T10:31:55.000Z</time>
      </trkpt>
      <trkpt lat="44.23491" lon="4.38349">
        <ele>298.39999389648</ele>
        <time>2015-12-05T10:31:56.000Z</time>
      </trkpt>
      <trkpt lat="44.23491" lon="4.38347">
        <ele>298.39999389648</ele>
        <time>2015-12-05T10:31:57.000Z</time>
      </trkpt>
      <trkpt lat="44.2347" lon="4.38265">
        <ele>296</ele>
        <time>2015-12-05T10:32:19.000Z</time>
      </trkpt>
      <trkpt lat="44.2346" lon="4.38244">
        <ele>296.20001220703</ele>
        <time>2015-12-05T10:32:25.000Z</time>
      </trkpt>
      <trkpt lat="44.2346" lon="4.38242">
        <ele>296</ele>
        <time>2015-12-05T10:32:26.000Z</time>
      </trkpt>
      <trkpt lat="44.23462" lon="4.38239">
        <ele>296</ele>
        <time>2015-12-05T10:32:27.000Z</time>
      </trkpt>
      <trkpt lat="44.23464" lon="4.38237">
        <ele>295.79998779297</ele>
        <time>2015-12-05T10:32:28.000Z</time>
      </trkpt>
      <trkpt lat="44.23466" lon="4.38234">
        <ele>295.79998779297</ele>
        <time>2015-12-05T10:32:29.000Z</time>
      </trkpt>
      <trkpt lat="44.23468" lon="4.38231">
        <ele>295.79998779297</ele>
        <time>2015-12-05T10:32:30.000Z</time>
      </trkpt>
      <trkpt lat="44.23476" lon="4.38215">
        <ele>295.39999389648</ele>
        <time>2015-12-05T10:32:36.000Z</time>
      </trkpt>
      <trkpt lat="44.23474" lon="4.38212">
        <ele>295.39999389648</ele>
        <time>2015-12-05T10:32:37.000Z</time>
      </trkpt>
      <trkpt lat="44.23432" lon="4.38151">
        <ele>295.79998779297</ele>
        <time>2015-12-05T10:32:57.000Z</time>
      </trkpt>
      <trkpt lat="44.23412" lon="4.38077">
        <ele>296.79998779297</ele>
        <time>2015-12-05T10:33:19.000Z</time>
      </trkpt>
      <trkpt lat="44.23387" lon="4.37999">
        <ele>298</ele>
        <time>2015-12-05T10:33:47.000Z</time>
      </trkpt>
      <trkpt lat="44.23373" lon="4.37933">
        <ele>297.20001220703</ele>
        <time>2015-12-05T10:34:11.000Z</time>
      </trkpt>
      <trkpt lat="44.23372" lon="4.37931">
        <ele>297.39999389648</ele>
        <time>2015-12-05T10:34:12.000Z</time>
      </trkpt>
      <trkpt lat="44.23372" lon="4.37927">
        <ele>297.39999389648</ele>
        <time>2015-12-05T10:34:13.000Z</time>
      </trkpt>
      <trkpt lat="44.23372" lon="4.37925">
        <ele>297.20001220703</ele>
        <time>2015-12-05T10:34:14.000Z</time>
      </trkpt>
      <trkpt lat="44.23372" lon="4.37921">
        <ele>297</ele>
        <time>2015-12-05T10:34:15.000Z</time>
      </trkpt>
      <trkpt lat="44.23372" lon="4.37918">
        <ele>297</ele>
        <time>2015-12-05T10:34:16.000Z</time>
      </trkpt>
      <trkpt lat="44.23372" lon="4.37915">
        <ele>297</ele>
        <time>2015-12-05T10:34:17.000Z</time>
      </trkpt>
      <trkpt lat="44.23373" lon="4.37913">
        <ele>297</ele>
        <time>2015-12-05T10:34:18.000Z</time>
      </trkpt>
      <trkpt lat="44.23375" lon="4.37911">
        <ele>297</ele>
        <time>2015-12-05T10:34:19.000Z</time>
      </trkpt>
      <trkpt lat="44.23376" lon="4.37908">
        <ele>297.20001220703</ele>
        <time>2015-12-05T10:34:20.000Z</time>
      </trkpt>
      <trkpt lat="44.23378" lon="4.37906">
        <ele>297.20001220703</ele>
        <time>2015-12-05T10:34:21.000Z</time>
      </trkpt>
      <trkpt lat="44.2338" lon="4.37906">
        <ele>297</ele>
        <time>2015-12-05T10:34:22.000Z</time>
      </trkpt>
      <trkpt lat="44.2338" lon="4.37902">
        <ele>297.20001220703</ele>
        <time>2015-12-05T10:34:23.000Z</time>
      </trkpt>
      <trkpt lat="44.2338" lon="4.37901">
        <ele>297.20001220703</ele>
        <time>2015-12-05T10:34:24.000Z</time>
      </trkpt>
      <trkpt lat="44.23378" lon="4.37893">
        <ele>297.20001220703</ele>
        <time>2015-12-05T10:34:34.000Z</time>
      </trkpt>
      <trkpt lat="44.23382" lon="4.37893">
        <ele>297.79998779297</ele>
        <time>2015-12-05T10:36:29.000Z</time>
      </trkpt>
      <trkpt lat="44.23384" lon="4.37892">
        <ele>297.79998779297</ele>
        <time>2015-12-05T10:36:30.000Z</time>
      </trkpt>
      <trkpt lat="44.23433" lon="4.37851">
        <ele>297.79998779297</ele>
        <time>2015-12-05T10:36:49.000Z</time>
      </trkpt>
      <trkpt lat="44.23486" lon="4.37803">
        <ele>296</ele>
        <time>2015-12-05T10:37:05.000Z</time>
      </trkpt>
      <trkpt lat="44.23529" lon="4.37821">
        <ele>296.79998779297</ele>
        <time>2015-12-05T10:37:21.000Z</time>
      </trkpt>
      <trkpt lat="44.2354" lon="4.37906">
        <ele>297</ele>
        <time>2015-12-05T10:37:41.000Z</time>
      </trkpt>
      <trkpt lat="44.23548" lon="4.37985">
        <ele>296.60000610352</ele>
        <time>2015-12-05T10:37:59.000Z</time>
      </trkpt>
      <trkpt lat="44.23552" lon="4.37997">
        <ele>297</ele>
        <time>2015-12-05T10:38:04.000Z</time>
      </trkpt>
      <trkpt lat="44.23554" lon="4.37997">
        <ele>296.79998779297</ele>
        <time>2015-12-05T10:38:05.000Z</time>
      </trkpt>
      <trkpt lat="44.23556" lon="4.37997">
        <ele>296.60000610352</ele>
        <time>2015-12-05T10:38:06.000Z</time>
      </trkpt>
      <trkpt lat="44.23613" lon="4.37975">
        <ele>295.39999389648</ele>
        <time>2015-12-05T10:38:24.000Z</time>
      </trkpt>
      <trkpt lat="44.23669" lon="4.37956">
        <ele>295</ele>
        <time>2015-12-05T10:38:41.000Z</time>
      </trkpt>
      <trkpt lat="44.23719" lon="4.37988">
        <ele>294.79998779297</ele>
        <time>2015-12-05T10:38:58.000Z</time>
      </trkpt>
      <trkpt lat="44.2377" lon="4.38023">
        <ele>295.20001220703</ele>
        <time>2015-12-05T10:39:14.000Z</time>
      </trkpt>
      <trkpt lat="44.23779" lon="4.38032">
        <ele>294.79998779297</ele>
        <time>2015-12-05T10:39:18.000Z</time>
      </trkpt>
      <trkpt lat="44.23782" lon="4.38031">
        <ele>295</ele>
        <time>2015-12-05T10:39:19.000Z</time>
      </trkpt>
      <trkpt lat="44.23786" lon="4.3803">
        <ele>295</ele>
        <time>2015-12-05T10:39:20.000Z</time>
      </trkpt>
      <trkpt lat="44.2379" lon="4.38029">
        <ele>295.20001220703</ele>
        <time>2015-12-05T10:39:21.000Z</time>
      </trkpt>
      <trkpt lat="44.23793" lon="4.38029">
        <ele>295.20001220703</ele>
        <time>2015-12-05T10:39:22.000Z</time>
      </trkpt>
      <trkpt lat="44.23796" lon="4.38028">
        <ele>295.39999389648</ele>
        <time>2015-12-05T10:39:23.000Z</time>
      </trkpt>
      <trkpt lat="44.2384" lon="4.38015">
        <ele>294</ele>
        <time>2015-12-05T10:39:45.000Z</time>
      </trkpt>
      <trkpt lat="44.23848" lon="4.38011">
        <ele>294</ele>
        <time>2015-12-05T10:41:00.000Z</time>
      </trkpt>
      <trkpt lat="44.23849" lon="4.38009">
        <ele>293.79998779297</ele>
        <time>2015-12-05T10:41:01.000Z</time>
      </trkpt>
      <trkpt lat="44.2385" lon="4.38007">
        <ele>293.60000610352</ele>
        <time>2015-12-05T10:41:02.000Z</time>
      </trkpt>
      <trkpt lat="44.23852" lon="4.38004">
        <ele>293.39999389648</ele>
        <time>2015-12-05T10:41:03.000Z</time>
      </trkpt>
      <trkpt lat="44.23852" lon="4.38001">
        <ele>293.39999389648</ele>
        <time>2015-12-05T10:41:04.000Z</time>
      </trkpt>
      <trkpt lat="44.23853" lon="4.37997">
        <ele>293.20001220703</ele>
        <time>2015-12-05T10:41:05.000Z</time>
      </trkpt>
      <trkpt lat="44.23853" lon="4.37994">
        <ele>293.20001220703</ele>
        <time>2015-12-05T10:41:06.000Z</time>
      </trkpt>
      <trkpt lat="44.23852" lon="4.3799">
        <ele>293.20001220703</ele>
        <time>2015-12-05T10:41:07.000Z</time>
      </trkpt>
      <trkpt lat="44.2385" lon="4.37986">
        <ele>293.20001220703</ele>
        <time>2015-12-05T10:41:08.000Z</time>
      </trkpt>
      <trkpt lat="44.23848" lon="4.37982">
        <ele>293.20001220703</ele>
        <time>2015-12-05T10:41:09.000Z</time>
      </trkpt>
      <trkpt lat="44.23845" lon="4.37978">
        <ele>293.20001220703</ele>
        <time>2015-12-05T10:41:10.000Z</time>
      </trkpt>
      <trkpt lat="44.23819" lon="4.37904">
        <ele>293.60000610352</ele>
        <time>2015-12-05T10:41:30.000Z</time>
      </trkpt>
      <trkpt lat="44.23811" lon="4.37827">
        <ele>294.60000610352</ele>
        <time>2015-12-05T10:41:51.000Z</time>
      </trkpt>
      <trkpt lat="44.23811" lon="4.37823">
        <ele>295.20001220703</ele>
        <time>2015-12-05T10:41:52.000Z</time>
      </trkpt>
      <trkpt lat="44.2381" lon="4.3782">
        <ele>295.20001220703</ele>
        <time>2015-12-05T10:41:53.000Z</time>
      </trkpt>
      <trkpt lat="44.2381" lon="4.37817">
        <ele>295</ele>
        <time>2015-12-05T10:41:54.000Z</time>
      </trkpt>
      <trkpt lat="44.23809" lon="4.37814">
        <ele>295</ele>
        <time>2015-12-05T10:41:55.000Z</time>
      </trkpt>
      <trkpt lat="44.23807" lon="4.37811">
        <ele>294.79998779297</ele>
        <time>2015-12-05T10:41:56.000Z</time>
      </trkpt>
      <trkpt lat="44.23806" lon="4.37808">
        <ele>294.79998779297</ele>
        <time>2015-12-05T10:41:57.000Z</time>
      </trkpt>
      <trkpt lat="44.23804" lon="4.37804">
        <ele>294.60000610352</ele>
        <time>2015-12-05T10:41:58.000Z</time>
      </trkpt>
      <trkpt lat="44.23784" lon="4.37733">
        <ele>295.60000610352</ele>
        <time>2015-12-05T10:42:17.000Z</time>
      </trkpt>
      <trkpt lat="44.23788" lon="4.37734">
        <ele>295.39999389648</ele>
        <time>2015-12-05T10:42:18.000Z</time>
      </trkpt>
      <trkpt lat="44.2379" lon="4.37735">
        <ele>295.39999389648</ele>
        <time>2015-12-05T10:42:19.000Z</time>
      </trkpt>
      <trkpt lat="44.23792" lon="4.37737">
        <ele>295.39999389648</ele>
        <time>2015-12-05T10:42:20.000Z</time>
      </trkpt>
      <trkpt lat="44.23794" lon="4.37738">
        <ele>295.39999389648</ele>
        <time>2015-12-05T10:42:21.000Z</time>
      </trkpt>
      <trkpt lat="44.23796" lon="4.37739">
        <ele>295.39999389648</ele>
        <time>2015-12-05T10:42:22.000Z</time>
      </trkpt>
      <trkpt lat="44.23852" lon="4.37765">
        <ele>295.79998779297</ele>
        <time>2015-12-05T10:42:44.000Z</time>
      </trkpt>
      <trkpt lat="44.23909" lon="4.37779">
        <ele>297.60000610352</ele>
        <time>2015-12-05T10:43:04.000Z</time>
      </trkpt>
      <trkpt lat="44.23967" lon="4.3778">
        <ele>299.60000610352</ele>
        <time>2015-12-05T10:43:24.000Z</time>
      </trkpt>
      <trkpt lat="44.24023" lon="4.37777">
        <ele>302.20001220703</ele>
        <time>2015-12-05T10:43:39.000Z</time>
      </trkpt>
      <trkpt lat="44.24038" lon="4.37772">
        <ele>302.60000610352</ele>
        <time>2015-12-05T10:43:42.000Z</time>
      </trkpt>
      <trkpt lat="44.24043" lon="4.37769">
        <ele>303</ele>
        <time>2015-12-05T10:43:43.000Z</time>
      </trkpt>
      <trkpt lat="44.24047" lon="4.37764">
        <ele>303</ele>
        <time>2015-12-05T10:43:44.000Z</time>
      </trkpt>
      <trkpt lat="44.2405" lon="4.37759">
        <ele>303.20001220703</ele>
        <time>2015-12-05T10:43:45.000Z</time>
      </trkpt>
      <trkpt lat="44.24052" lon="4.37753">
        <ele>303.20001220703</ele>
        <time>2015-12-05T10:43:46.000Z</time>
      </trkpt>
      <trkpt lat="44.24053" lon="4.37747">
        <ele>303.39999389648</ele>
        <time>2015-12-05T10:43:47.000Z</time>
      </trkpt>
      <trkpt lat="44.24054" lon="4.37742">
        <ele>303.79998779297</ele>
        <time>2015-12-05T10:43:48.000Z</time>
      </trkpt>
      <trkpt lat="44.24056" lon="4.37736">
        <ele>304.20001220703</ele>
        <time>2015-12-05T10:43:49.000Z</time>
      </trkpt>
      <trkpt lat="44.24058" lon="4.3773">
        <ele>304.39999389648</ele>
        <time>2015-12-05T10:43:50.000Z</time>
      </trkpt>
      <trkpt lat="44.24061" lon="4.37725">
        <ele>304.39999389648</ele>
        <time>2015-12-05T10:43:51.000Z</time>
      </trkpt>
      <trkpt lat="44.24064" lon="4.3772">
        <ele>303.60000610352</ele>
        <time>2015-12-05T10:43:52.000Z</time>
      </trkpt>
      <trkpt lat="44.24071" lon="4.37711">
        <ele>302.79998779297</ele>
        <time>2015-12-05T10:43:54.000Z</time>
      </trkpt>
      <trkpt lat="44.24074" lon="4.37708">
        <ele>302.79998779297</ele>
        <time>2015-12-05T10:43:55.000Z</time>
      </trkpt>
      <trkpt lat="44.24131" lon="4.37679">
        <ele>302.60000610352</ele>
        <time>2015-12-05T10:44:07.000Z</time>
      </trkpt>
      <trkpt lat="44.24185" lon="4.37647">
        <ele>304.60000610352</ele>
        <time>2015-12-05T10:44:24.000Z</time>
      </trkpt>
      <trkpt lat="44.24185" lon="4.37645">
        <ele>304.79998779297</ele>
        <time>2015-12-05T10:44:25.000Z</time>
      </trkpt>
      <trkpt lat="44.24185" lon="4.37644">
        <ele>304.79998779297</ele>
        <time>2015-12-05T10:44:26.000Z</time>
      </trkpt>
      <trkpt lat="44.24184" lon="4.37643">
        <ele>304.60000610352</ele>
        <time>2015-12-05T10:44:31.000Z</time>
      </trkpt>
      <trkpt lat="44.24175" lon="4.3763">
        <ele>305.20001220703</ele>
        <time>2015-12-05T10:48:04.000Z</time>
      </trkpt>
      <trkpt lat="44.24174" lon="4.37629">
        <ele>305.20001220703</ele>
        <time>2015-12-05T10:48:05.000Z</time>
      </trkpt>
      <trkpt lat="44.24169" lon="4.37622">
        <ele>304.79998779297</ele>
        <time>2015-12-05T10:48:15.000Z</time>
      </trkpt>
      <trkpt lat="44.24163" lon="4.37618">
        <ele>304.79998779297</ele>
        <time>2015-12-05T10:48:22.000Z</time>
      </trkpt>
      <trkpt lat="44.24161" lon="4.37618">
        <ele>304.79998779297</ele>
        <time>2015-12-05T10:48:23.000Z</time>
      </trkpt>
      <trkpt lat="44.24105" lon="4.37605">
        <ele>301.79998779297</ele>
        <time>2015-12-05T10:48:43.000Z</time>
      </trkpt>
      <trkpt lat="44.24102" lon="4.37609">
        <ele>301.79998779297</ele>
        <time>2015-12-05T10:48:44.000Z</time>
      </trkpt>
      <trkpt lat="44.24099" lon="4.37612">
        <ele>301.79998779297</ele>
        <time>2015-12-05T10:48:45.000Z</time>
      </trkpt>
      <trkpt lat="44.24097" lon="4.37613">
        <ele>301.79998779297</ele>
        <time>2015-12-05T10:48:46.000Z</time>
      </trkpt>
      <trkpt lat="44.24094" lon="4.37614">
        <ele>301.79998779297</ele>
        <time>2015-12-05T10:48:47.000Z</time>
      </trkpt>
      <trkpt lat="44.24091" lon="4.37614">
        <ele>302</ele>
        <time>2015-12-05T10:48:48.000Z</time>
      </trkpt>
      <trkpt lat="44.24088" lon="4.37615">
        <ele>302.20001220703</ele>
        <time>2015-12-05T10:48:49.000Z</time>
      </trkpt>
      <trkpt lat="44.24038" lon="4.37623">
        <ele>302</ele>
        <time>2015-12-05T10:49:06.000Z</time>
      </trkpt>
      <trkpt lat="44.24036" lon="4.3762">
        <ele>301.79998779297</ele>
        <time>2015-12-05T10:49:07.000Z</time>
      </trkpt>
      <trkpt lat="44.23992" lon="4.37568">
        <ele>300.60000610352</ele>
        <time>2015-12-05T10:49:25.000Z</time>
      </trkpt>
      <trkpt lat="44.23958" lon="4.37575">
        <ele>300.79998779297</ele>
        <time>2015-12-05T10:49:36.000Z</time>
      </trkpt>
      <trkpt lat="44.23956" lon="4.37573">
        <ele>300.60000610352</ele>
        <time>2015-12-05T10:49:37.000Z</time>
      </trkpt>
      <trkpt lat="44.23954" lon="4.37571">
        <ele>300.60000610352</ele>
        <time>2015-12-05T10:49:38.000Z</time>
      </trkpt>
      <trkpt lat="44.23952" lon="4.37569">
        <ele>300.79998779297</ele>
        <time>2015-12-05T10:49:39.000Z</time>
      </trkpt>
      <trkpt lat="44.2395" lon="4.37566">
        <ele>301</ele>
        <time>2015-12-05T10:49:40.000Z</time>
      </trkpt>
      <trkpt lat="44.23949" lon="4.37563">
        <ele>301</ele>
        <time>2015-12-05T10:49:41.000Z</time>
      </trkpt>
      <trkpt lat="44.23948" lon="4.37561">
        <ele>300.79998779297</ele>
        <time>2015-12-05T10:49:42.000Z</time>
      </trkpt>
      <trkpt lat="44.23946" lon="4.3756">
        <ele>300.79998779297</ele>
        <time>2015-12-05T10:49:43.000Z</time>
      </trkpt>
      <trkpt lat="44.23943" lon="4.37559">
        <ele>300.60000610352</ele>
        <time>2015-12-05T10:49:44.000Z</time>
      </trkpt>
      <trkpt lat="44.23941" lon="4.37558">
        <ele>300.79998779297</ele>
        <time>2015-12-05T10:49:45.000Z</time>
      </trkpt>
      <trkpt lat="44.23938" lon="4.37557">
        <ele>300.79998779297</ele>
        <time>2015-12-05T10:49:46.000Z</time>
      </trkpt>
      <trkpt lat="44.23935" lon="4.37556">
        <ele>301</ele>
        <time>2015-12-05T10:49:47.000Z</time>
      </trkpt>
      <trkpt lat="44.23933" lon="4.37554">
        <ele>301</ele>
        <time>2015-12-05T10:49:48.000Z</time>
      </trkpt>
      <trkpt lat="44.23932" lon="4.37551">
        <ele>301</ele>
        <time>2015-12-05T10:49:49.000Z</time>
      </trkpt>
      <trkpt lat="44.2393" lon="4.37549">
        <ele>301</ele>
        <time>2015-12-05T10:49:50.000Z</time>
      </trkpt>
      <trkpt lat="44.23929" lon="4.37546">
        <ele>300.79998779297</ele>
        <time>2015-12-05T10:49:51.000Z</time>
      </trkpt>
      <trkpt lat="44.23924" lon="4.37537">
        <ele>300.60000610352</ele>
        <time>2015-12-05T10:49:55.000Z</time>
      </trkpt>
      <trkpt lat="44.23921" lon="4.37536">
        <ele>300.60000610352</ele>
        <time>2015-12-05T10:49:56.000Z</time>
      </trkpt>
      <trkpt lat="44.23919" lon="4.37535">
        <ele>300.60000610352</ele>
        <time>2015-12-05T10:49:57.000Z</time>
      </trkpt>
      <trkpt lat="44.23917" lon="4.37532">
        <ele>300.60000610352</ele>
        <time>2015-12-05T10:49:58.000Z</time>
      </trkpt>
      <trkpt lat="44.23916" lon="4.3753">
        <ele>300.60000610352</ele>
        <time>2015-12-05T10:49:59.000Z</time>
      </trkpt>
      <trkpt lat="44.23916" lon="4.37527">
        <ele>300.39999389648</ele>
        <time>2015-12-05T10:50:00.000Z</time>
      </trkpt>
      <trkpt lat="44.23914" lon="4.37525">
        <ele>300.39999389648</ele>
        <time>2015-12-05T10:50:01.000Z</time>
      </trkpt>
      <trkpt lat="44.23913" lon="4.37522">
        <ele>300.39999389648</ele>
        <time>2015-12-05T10:50:02.000Z</time>
      </trkpt>
      <trkpt lat="44.23911" lon="4.37519">
        <ele>300.20001220703</ele>
        <time>2015-12-05T10:50:03.000Z</time>
      </trkpt>
      <trkpt lat="44.23868" lon="4.37467">
        <ele>299.60000610352</ele>
        <time>2015-12-05T10:50:21.000Z</time>
      </trkpt>
      <trkpt lat="44.23867" lon="4.37463">
        <ele>299.60000610352</ele>
        <time>2015-12-05T10:50:22.000Z</time>
      </trkpt>
      <trkpt lat="44.23867" lon="4.3746">
        <ele>299.60000610352</ele>
        <time>2015-12-05T10:50:23.000Z</time>
      </trkpt>
      <trkpt lat="44.23866" lon="4.37456">
        <ele>299.60000610352</ele>
        <time>2015-12-05T10:50:24.000Z</time>
      </trkpt>
      <trkpt lat="44.23866" lon="4.37453">
        <ele>299.60000610352</ele>
        <time>2015-12-05T10:50:25.000Z</time>
      </trkpt>
      <trkpt lat="44.23865" lon="4.37449">
        <ele>299.60000610352</ele>
        <time>2015-12-05T10:50:26.000Z</time>
      </trkpt>
      <trkpt lat="44.23839" lon="4.37421">
        <ele>297.39999389648</ele>
        <time>2015-12-05T10:50:35.000Z</time>
      </trkpt>
      <trkpt lat="44.23834" lon="4.37415">
        <ele>296.79998779297</ele>
        <time>2015-12-05T10:50:36.000Z</time>
      </trkpt>
      <trkpt lat="44.23831" lon="4.37409">
        <ele>296.39999389648</ele>
        <time>2015-12-05T10:50:37.000Z</time>
      </trkpt>
      <trkpt lat="44.23828" lon="4.37403">
        <ele>296.20001220703</ele>
        <time>2015-12-05T10:50:38.000Z</time>
      </trkpt>
      <trkpt lat="44.23825" lon="4.37398">
        <ele>296.60000610352</ele>
        <time>2015-12-05T10:50:39.000Z</time>
      </trkpt>
      <trkpt lat="44.23821" lon="4.37395">
        <ele>297</ele>
        <time>2015-12-05T10:50:40.000Z</time>
      </trkpt>
      <trkpt lat="44.23817" lon="4.37392">
        <ele>297.20001220703</ele>
        <time>2015-12-05T10:50:41.000Z</time>
      </trkpt>
      <trkpt lat="44.23814" lon="4.37389">
        <ele>297.60000610352</ele>
        <time>2015-12-05T10:50:42.000Z</time>
      </trkpt>
      <trkpt lat="44.23811" lon="4.37386">
        <ele>297.60000610352</ele>
        <time>2015-12-05T10:50:43.000Z</time>
      </trkpt>
      <trkpt lat="44.23809" lon="4.37382">
        <ele>297.60000610352</ele>
        <time>2015-12-05T10:50:44.000Z</time>
      </trkpt>
      <trkpt lat="44.23807" lon="4.37379">
        <ele>297.60000610352</ele>
        <time>2015-12-05T10:50:45.000Z</time>
      </trkpt>
      <trkpt lat="44.23804" lon="4.37376">
        <ele>297.79998779297</ele>
        <time>2015-12-05T10:50:46.000Z</time>
      </trkpt>
      <trkpt lat="44.23769" lon="4.37314">
        <ele>298.20001220703</ele>
        <time>2015-12-05T10:51:05.000Z</time>
      </trkpt>
      <trkpt lat="44.23722" lon="4.37269">
        <ele>297.20001220703</ele>
        <time>2015-12-05T10:51:21.000Z</time>
      </trkpt>
      <trkpt lat="44.2372" lon="4.37263">
        <ele>297</ele>
        <time>2015-12-05T10:51:22.000Z</time>
      </trkpt>
      <trkpt lat="44.23717" lon="4.37258">
        <ele>296.60000610352</ele>
        <time>2015-12-05T10:51:23.000Z</time>
      </trkpt>
      <trkpt lat="44.23712" lon="4.37254">
        <ele>296</ele>
        <time>2015-12-05T10:51:24.000Z</time>
      </trkpt>
      <trkpt lat="44.23707" lon="4.37249">
        <ele>295.39999389648</ele>
        <time>2015-12-05T10:51:25.000Z</time>
      </trkpt>
      <trkpt lat="44.23701" lon="4.37243">
        <ele>295</ele>
        <time>2015-12-05T10:51:26.000Z</time>
      </trkpt>
      <trkpt lat="44.23695" lon="4.37237">
        <ele>294.60000610352</ele>
        <time>2015-12-05T10:51:27.000Z</time>
      </trkpt>
      <trkpt lat="44.2369" lon="4.37232">
        <ele>294.79998779297</ele>
        <time>2015-12-05T10:51:28.000Z</time>
      </trkpt>
      <trkpt lat="44.23681" lon="4.37221">
        <ele>295</ele>
        <time>2015-12-05T10:51:30.000Z</time>
      </trkpt>
      <trkpt lat="44.23668" lon="4.37212">
        <ele>295.20001220703</ele>
        <time>2015-12-05T10:51:33.000Z</time>
      </trkpt>
      <trkpt lat="44.23664" lon="4.37211">
        <ele>295.20001220703</ele>
        <time>2015-12-05T10:51:34.000Z</time>
      </trkpt>
      <trkpt lat="44.2366" lon="4.37213">
        <ele>295.20001220703</ele>
        <time>2015-12-05T10:51:35.000Z</time>
      </trkpt>
      <trkpt lat="44.23655" lon="4.37214">
        <ele>295.20001220703</ele>
        <time>2015-12-05T10:51:36.000Z</time>
      </trkpt>
      <trkpt lat="44.23651" lon="4.37213">
        <ele>295.39999389648</ele>
        <time>2015-12-05T10:51:37.000Z</time>
      </trkpt>
      <trkpt lat="44.23647" lon="4.37211">
        <ele>295.39999389648</ele>
        <time>2015-12-05T10:51:38.000Z</time>
      </trkpt>
      <trkpt lat="44.23644" lon="4.37206">
        <ele>295.20001220703</ele>
        <time>2015-12-05T10:51:39.000Z</time>
      </trkpt>
      <trkpt lat="44.23641" lon="4.37202">
        <ele>295</ele>
        <time>2015-12-05T10:51:40.000Z</time>
      </trkpt>
      <trkpt lat="44.23639" lon="4.37198">
        <ele>294.79998779297</ele>
        <time>2015-12-05T10:51:41.000Z</time>
      </trkpt>
      <trkpt lat="44.23625" lon="4.37152">
        <ele>294.20001220703</ele>
        <time>2015-12-05T10:51:51.000Z</time>
      </trkpt>
      <trkpt lat="44.2362" lon="4.37148">
        <ele>294</ele>
        <time>2015-12-05T10:51:52.000Z</time>
      </trkpt>
      <trkpt lat="44.23615" lon="4.37146">
        <ele>293.79998779297</ele>
        <time>2015-12-05T10:51:53.000Z</time>
      </trkpt>
      <trkpt lat="44.23609" lon="4.37144">
        <ele>293.60000610352</ele>
        <time>2015-12-05T10:51:54.000Z</time>
      </trkpt>
      <trkpt lat="44.23603" lon="4.37141">
        <ele>293.39999389648</ele>
        <time>2015-12-05T10:51:55.000Z</time>
      </trkpt>
      <trkpt lat="44.23597" lon="4.37138">
        <ele>293.39999389648</ele>
        <time>2015-12-05T10:51:56.000Z</time>
      </trkpt>
      <trkpt lat="44.2359" lon="4.37137">
        <ele>293.20001220703</ele>
        <time>2015-12-05T10:51:57.000Z</time>
      </trkpt>
      <trkpt lat="44.23552" lon="4.37132">
        <ele>293</ele>
        <time>2015-12-05T10:52:03.000Z</time>
      </trkpt>
      <trkpt lat="44.23547" lon="4.37127">
        <ele>293.20001220703</ele>
        <time>2015-12-05T10:52:04.000Z</time>
      </trkpt>
      <trkpt lat="44.23543" lon="4.37122">
        <ele>293.39999389648</ele>
        <time>2015-12-05T10:52:05.000Z</time>
      </trkpt>
      <trkpt lat="44.2354" lon="4.37117">
        <ele>293.60000610352</ele>
        <time>2015-12-05T10:52:06.000Z</time>
      </trkpt>
      <trkpt lat="44.23537" lon="4.37111">
        <ele>293.60000610352</ele>
        <time>2015-12-05T10:52:07.000Z</time>
      </trkpt>
      <trkpt lat="44.23534" lon="4.37106">
        <ele>293.79998779297</ele>
        <time>2015-12-05T10:52:08.000Z</time>
      </trkpt>
      <trkpt lat="44.23522" lon="4.37087">
        <ele>293.79998779297</ele>
        <time>2015-12-05T10:52:12.000Z</time>
      </trkpt>
      <trkpt lat="44.23518" lon="4.37084">
        <ele>293.60000610352</ele>
        <time>2015-12-05T10:52:13.000Z</time>
      </trkpt>
      <trkpt lat="44.23477" lon="4.37071">
        <ele>294.20001220703</ele>
        <time>2015-12-05T10:52:24.000Z</time>
      </trkpt>
      <trkpt lat="44.2343" lon="4.37048">
        <ele>293.79998779297</ele>
        <time>2015-12-05T10:52:44.000Z</time>
      </trkpt>
      <trkpt lat="44.2343" lon="4.37049">
        <ele>293.60000610352</ele>
        <time>2015-12-05T10:52:48.000Z</time>
      </trkpt>
      <trkpt lat="44.23428" lon="4.3705">
        <ele>293.39999389648</ele>
        <time>2015-12-05T10:54:21.000Z</time>
      </trkpt>
      <trkpt lat="44.23427" lon="4.3705">
        <ele>293.39999389648</ele>
        <time>2015-12-05T10:54:22.000Z</time>
      </trkpt>
      <trkpt lat="44.23388" lon="4.37021">
        <ele>292.60000610352</ele>
        <time>2015-12-05T10:54:38.000Z</time>
      </trkpt>
      <trkpt lat="44.23388" lon="4.37018">
        <ele>292.79998779297</ele>
        <time>2015-12-05T10:54:39.000Z</time>
      </trkpt>
      <trkpt lat="44.23387" lon="4.36967">
        <ele>292</ele>
        <time>2015-12-05T10:54:57.000Z</time>
      </trkpt>
      <trkpt lat="44.23388" lon="4.36964">
        <ele>291.60000610352</ele>
        <time>2015-12-05T10:54:58.000Z</time>
      </trkpt>
      <trkpt lat="44.23389" lon="4.36961">
        <ele>291.39999389648</ele>
        <time>2015-12-05T10:54:59.000Z</time>
      </trkpt>
      <trkpt lat="44.2339" lon="4.36958">
        <ele>291.60000610352</ele>
        <time>2015-12-05T10:55:00.000Z</time>
      </trkpt>
      <trkpt lat="44.23391" lon="4.36954">
        <ele>291.39999389648</ele>
        <time>2015-12-05T10:55:01.000Z</time>
      </trkpt>
      <trkpt lat="44.23392" lon="4.36951">
        <ele>291</ele>
        <time>2015-12-05T10:55:02.000Z</time>
      </trkpt>
      <trkpt lat="44.23392" lon="4.36947">
        <ele>290.60000610352</ele>
        <time>2015-12-05T10:55:03.000Z</time>
      </trkpt>
      <trkpt lat="44.23391" lon="4.36944">
        <ele>290.60000610352</ele>
        <time>2015-12-05T10:55:04.000Z</time>
      </trkpt>
      <trkpt lat="44.2339" lon="4.3694">
        <ele>290.39999389648</ele>
        <time>2015-12-05T10:55:05.000Z</time>
      </trkpt>
      <trkpt lat="44.23369" lon="4.36866">
        <ele>288.39999389648</ele>
        <time>2015-12-05T10:55:20.000Z</time>
      </trkpt>
      <trkpt lat="44.23353" lon="4.36789">
        <ele>290</ele>
        <time>2015-12-05T10:55:37.000Z</time>
      </trkpt>
      <trkpt lat="44.23336" lon="4.3673">
        <ele>289.60000610352</ele>
        <time>2015-12-05T10:55:50.000Z</time>
      </trkpt>
      <trkpt lat="44.23336" lon="4.36724">
        <ele>289.20001220703</ele>
        <time>2015-12-05T10:55:51.000Z</time>
      </trkpt>
      <trkpt lat="44.23336" lon="4.36717">
        <ele>288.60000610352</ele>
        <time>2015-12-05T10:55:52.000Z</time>
      </trkpt>
      <trkpt lat="44.23337" lon="4.36709">
        <ele>288.39999389648</ele>
        <time>2015-12-05T10:55:53.000Z</time>
      </trkpt>
      <trkpt lat="44.23341" lon="4.36687">
        <ele>288.20001220703</ele>
        <time>2015-12-05T10:55:56.000Z</time>
      </trkpt>
      <trkpt lat="44.2334" lon="4.36681">
        <ele>288.39999389648</ele>
        <time>2015-12-05T10:55:57.000Z</time>
      </trkpt>
      <trkpt lat="44.23339" lon="4.36675">
        <ele>288.39999389648</ele>
        <time>2015-12-05T10:55:58.000Z</time>
      </trkpt>
      <trkpt lat="44.23337" lon="4.3667">
        <ele>288.39999389648</ele>
        <time>2015-12-05T10:55:59.000Z</time>
      </trkpt>
      <trkpt lat="44.23336" lon="4.36665">
        <ele>288.60000610352</ele>
        <time>2015-12-05T10:56:00.000Z</time>
      </trkpt>
      <trkpt lat="44.23335" lon="4.3666">
        <ele>289</ele>
        <time>2015-12-05T10:56:01.000Z</time>
      </trkpt>
      <trkpt lat="44.23335" lon="4.36655">
        <ele>289.39999389648</ele>
        <time>2015-12-05T10:56:02.000Z</time>
      </trkpt>
      <trkpt lat="44.23315" lon="4.36617">
        <ele>290.20001220703</ele>
        <time>2015-12-05T10:56:10.000Z</time>
      </trkpt>
      <trkpt lat="44.23304" lon="4.36604">
        <ele>290.79998779297</ele>
        <time>2015-12-05T10:56:13.000Z</time>
      </trkpt>
      <trkpt lat="44.23278" lon="4.3657">
        <ele>291.39999389648</ele>
        <time>2015-12-05T10:56:20.000Z</time>
      </trkpt>
      <trkpt lat="44.23276" lon="4.36564">
        <ele>291.39999389648</ele>
        <time>2015-12-05T10:56:21.000Z</time>
      </trkpt>
      <trkpt lat="44.23275" lon="4.36558">
        <ele>291.20001220703</ele>
        <time>2015-12-05T10:56:22.000Z</time>
      </trkpt>
      <trkpt lat="44.23271" lon="4.36547">
        <ele>291</ele>
        <time>2015-12-05T10:56:24.000Z</time>
      </trkpt>
      <trkpt lat="44.23269" lon="4.36542">
        <ele>290.79998779297</ele>
        <time>2015-12-05T10:56:25.000Z</time>
      </trkpt>
      <trkpt lat="44.23265" lon="4.36538">
        <ele>290.60000610352</ele>
        <time>2015-12-05T10:56:26.000Z</time>
      </trkpt>
      <trkpt lat="44.23261" lon="4.36534">
        <ele>290.39999389648</ele>
        <time>2015-12-05T10:56:27.000Z</time>
      </trkpt>
      <trkpt lat="44.23256" lon="4.36532">
        <ele>290.20001220703</ele>
        <time>2015-12-05T10:56:28.000Z</time>
      </trkpt>
      <trkpt lat="44.23252" lon="4.36529">
        <ele>290</ele>
        <time>2015-12-05T10:56:29.000Z</time>
      </trkpt>
      <trkpt lat="44.23203" lon="4.36536">
        <ele>290</ele>
        <time>2015-12-05T10:57:00.000Z</time>
      </trkpt>
      <trkpt lat="44.23198" lon="4.36532">
        <ele>290.20001220703</ele>
        <time>2015-12-05T10:58:33.000Z</time>
      </trkpt>
      <trkpt lat="44.23197" lon="4.36531">
        <ele>290.20001220703</ele>
        <time>2015-12-05T10:58:34.000Z</time>
      </trkpt>
      <trkpt lat="44.23141" lon="4.36505">
        <ele>290.79998779297</ele>
        <time>2015-12-05T10:58:54.000Z</time>
      </trkpt>
      <trkpt lat="44.23084" lon="4.36475">
        <ele>290.60000610352</ele>
        <time>2015-12-05T10:59:12.000Z</time>
      </trkpt>
      <trkpt lat="44.23031" lon="4.36442">
        <ele>290.60000610352</ele>
        <time>2015-12-05T10:59:28.000Z</time>
      </trkpt>
      <trkpt lat="44.22973" lon="4.36413">
        <ele>289.79998779297</ele>
        <time>2015-12-05T10:59:41.000Z</time>
      </trkpt>
      <trkpt lat="44.22957" lon="4.36405">
        <ele>290.39999389648</ele>
        <time>2015-12-05T10:59:48.000Z</time>
      </trkpt>
      <trkpt lat="44.22956" lon="4.36404">
        <ele>290.39999389648</ele>
        <time>2015-12-05T10:59:49.000Z</time>
      </trkpt>
      <trkpt lat="44.22922" lon="4.36338">
        <ele>291</ele>
        <time>2015-12-05T11:00:07.000Z</time>
      </trkpt>
      <trkpt lat="44.22894" lon="4.36288">
        <ele>291</ele>
        <time>2015-12-05T11:00:19.000Z</time>
      </trkpt>
      <trkpt lat="44.22873" lon="4.36262">
        <ele>291.20001220703</ele>
        <time>2015-12-05T11:00:25.000Z</time>
      </trkpt>
      <trkpt lat="44.2286" lon="4.36246">
        <ele>291.79998779297</ele>
        <time>2015-12-05T11:00:29.000Z</time>
      </trkpt>
      <trkpt lat="44.22856" lon="4.36241">
        <ele>291.79998779297</ele>
        <time>2015-12-05T11:00:30.000Z</time>
      </trkpt>
      <trkpt lat="44.22814" lon="4.36184">
        <ele>292.60000610352</ele>
        <time>2015-12-05T11:00:43.000Z</time>
      </trkpt>
      <trkpt lat="44.22773" lon="4.36128">
        <ele>295.20001220703</ele>
        <time>2015-12-05T11:01:03.000Z</time>
      </trkpt>
      <trkpt lat="44.22745" lon="4.36059">
        <ele>296.60000610352</ele>
        <time>2015-12-05T11:01:24.000Z</time>
      </trkpt>
      <trkpt lat="44.22726" lon="4.36014">
        <ele>297.39999389648</ele>
        <time>2015-12-05T11:01:37.000Z</time>
      </trkpt>
      <trkpt lat="44.22727" lon="4.36011">
        <ele>297.60000610352</ele>
        <time>2015-12-05T11:01:38.000Z</time>
      </trkpt>
      <trkpt lat="44.2273" lon="4.36009">
        <ele>297.79998779297</ele>
        <time>2015-12-05T11:01:39.000Z</time>
      </trkpt>
      <trkpt lat="44.22732" lon="4.36008">
        <ele>298</ele>
        <time>2015-12-05T11:01:40.000Z</time>
      </trkpt>
      <trkpt lat="44.22734" lon="4.36006">
        <ele>298.20001220703</ele>
        <time>2015-12-05T11:01:41.000Z</time>
      </trkpt>
      <trkpt lat="44.22762" lon="4.35953">
        <ele>299.79998779297</ele>
        <time>2015-12-05T11:02:06.000Z</time>
      </trkpt>
      <trkpt lat="44.22754" lon="4.35912">
        <ele>298.60000610352</ele>
        <time>2015-12-05T11:02:14.000Z</time>
      </trkpt>
      <trkpt lat="44.22746" lon="4.35896">
        <ele>297.60000610352</ele>
        <time>2015-12-05T11:02:17.000Z</time>
      </trkpt>
      <trkpt lat="44.22743" lon="4.35892">
        <ele>297.39999389648</ele>
        <time>2015-12-05T11:02:18.000Z</time>
      </trkpt>
      <trkpt lat="44.22736" lon="4.35883">
        <ele>297.60000610352</ele>
        <time>2015-12-05T11:02:20.000Z</time>
      </trkpt>
      <trkpt lat="44.22734" lon="4.35878">
        <ele>297.79998779297</ele>
        <time>2015-12-05T11:02:21.000Z</time>
      </trkpt>
      <trkpt lat="44.22707" lon="4.35806">
        <ele>297.60000610352</ele>
        <time>2015-12-05T11:02:36.000Z</time>
      </trkpt>
      <trkpt lat="44.22714" lon="4.35732">
        <ele>296.79998779297</ele>
        <time>2015-12-05T11:02:53.000Z</time>
      </trkpt>
      <trkpt lat="44.22692" lon="4.35663">
        <ele>298.20001220703</ele>
        <time>2015-12-05T11:03:14.000Z</time>
      </trkpt>
      <trkpt lat="44.22685" lon="4.35649">
        <ele>299.39999389648</ele>
        <time>2015-12-05T11:03:27.000Z</time>
      </trkpt>
      <trkpt lat="44.22684" lon="4.35641">
        <ele>299.79998779297</ele>
        <time>2015-12-05T11:05:38.000Z</time>
      </trkpt>
      <trkpt lat="44.22683" lon="4.3564">
        <ele>299.79998779297</ele>
        <time>2015-12-05T11:05:39.000Z</time>
      </trkpt>
      <trkpt lat="44.22678" lon="4.35639">
        <ele>299.60000610352</ele>
        <time>2015-12-05T11:05:41.000Z</time>
      </trkpt>
      <trkpt lat="44.22675" lon="4.35639">
        <ele>299.60000610352</ele>
        <time>2015-12-05T11:05:42.000Z</time>
      </trkpt>
      <trkpt lat="44.2267" lon="4.35638">
        <ele>300</ele>
        <time>2015-12-05T11:05:44.000Z</time>
      </trkpt>
      <trkpt lat="44.22669" lon="4.35636">
        <ele>300</ele>
        <time>2015-12-05T11:05:45.000Z</time>
      </trkpt>
      <trkpt lat="44.22668" lon="4.35633">
        <ele>300.20001220703</ele>
        <time>2015-12-05T11:05:46.000Z</time>
      </trkpt>
      <trkpt lat="44.22669" lon="4.3563">
        <ele>300.20001220703</ele>
        <time>2015-12-05T11:05:47.000Z</time>
      </trkpt>
      <trkpt lat="44.22669" lon="4.35627">
        <ele>300.39999389648</ele>
        <time>2015-12-05T11:05:48.000Z</time>
      </trkpt>
      <trkpt lat="44.22668" lon="4.35624">
        <ele>300.39999389648</ele>
        <time>2015-12-05T11:05:49.000Z</time>
      </trkpt>
      <trkpt lat="44.22668" lon="4.35621">
        <ele>300.39999389648</ele>
        <time>2015-12-05T11:05:50.000Z</time>
      </trkpt>
      <trkpt lat="44.22668" lon="4.35619">
        <ele>300.39999389648</ele>
        <time>2015-12-05T11:05:51.000Z</time>
      </trkpt>
      <trkpt lat="44.22668" lon="4.35617">
        <ele>300.60000610352</ele>
        <time>2015-12-05T11:05:52.000Z</time>
      </trkpt>
      <trkpt lat="44.22667" lon="4.35614">
        <ele>300.60000610352</ele>
        <time>2015-12-05T11:05:53.000Z</time>
      </trkpt>
      <trkpt lat="44.22653" lon="4.35532">
        <ele>300.79998779297</ele>
        <time>2015-12-05T11:06:13.000Z</time>
      </trkpt>
      <trkpt lat="44.22621" lon="4.35466">
        <ele>301.39999389648</ele>
        <time>2015-12-05T11:06:26.000Z</time>
      </trkpt>
      <trkpt lat="44.2258" lon="4.354">
        <ele>301.60000610352</ele>
        <time>2015-12-05T11:06:39.000Z</time>
      </trkpt>
      <trkpt lat="44.22543" lon="4.35337">
        <ele>301.39999389648</ele>
        <time>2015-12-05T11:06:50.000Z</time>
      </trkpt>
      <trkpt lat="44.22532" lon="4.3531">
        <ele>301</ele>
        <time>2015-12-05T11:06:54.000Z</time>
      </trkpt>
      <trkpt lat="44.22522" lon="4.35235">
        <ele>301.79998779297</ele>
        <time>2015-12-05T11:07:04.000Z</time>
      </trkpt>
      <trkpt lat="44.2253" lon="4.35151">
        <ele>302.39999389648</ele>
        <time>2015-12-05T11:07:15.000Z</time>
      </trkpt>
      <trkpt lat="44.22536" lon="4.35104">
        <ele>302.79998779297</ele>
        <time>2015-12-05T11:07:22.000Z</time>
      </trkpt>
      <trkpt lat="44.22538" lon="4.35098">
        <ele>302.79998779297</ele>
        <time>2015-12-05T11:07:23.000Z</time>
      </trkpt>
      <trkpt lat="44.22541" lon="4.35094">
        <ele>302.79998779297</ele>
        <time>2015-12-05T11:07:24.000Z</time>
      </trkpt>
      <trkpt lat="44.22543" lon="4.35089">
        <ele>302.79998779297</ele>
        <time>2015-12-05T11:07:25.000Z</time>
      </trkpt>
      <trkpt lat="44.22545" lon="4.35085">
        <ele>302.79998779297</ele>
        <time>2015-12-05T11:07:26.000Z</time>
      </trkpt>
      <trkpt lat="44.22547" lon="4.35081">
        <ele>302.79998779297</ele>
        <time>2015-12-05T11:07:27.000Z</time>
      </trkpt>
      <trkpt lat="44.2255" lon="4.35077">
        <ele>302.79998779297</ele>
        <time>2015-12-05T11:07:28.000Z</time>
      </trkpt>
      <trkpt lat="44.22552" lon="4.35073">
        <ele>302.79998779297</ele>
        <time>2015-12-05T11:07:29.000Z</time>
      </trkpt>
      <trkpt lat="44.22554" lon="4.35067">
        <ele>302.79998779297</ele>
        <time>2015-12-05T11:07:30.000Z</time>
      </trkpt>
      <trkpt lat="44.22556" lon="4.35062">
        <ele>302.60000610352</ele>
        <time>2015-12-05T11:07:31.000Z</time>
      </trkpt>
      <trkpt lat="44.22557" lon="4.35058">
        <ele>302.60000610352</ele>
        <time>2015-12-05T11:07:32.000Z</time>
      </trkpt>
      <trkpt lat="44.22557" lon="4.35055">
        <ele>302.60000610352</ele>
        <time>2015-12-05T11:07:33.000Z</time>
      </trkpt>
      <trkpt lat="44.22557" lon="4.35054">
        <ele>302.79998779297</ele>
        <time>2015-12-05T11:07:34.000Z</time>
      </trkpt>
      <trkpt lat="44.22558" lon="4.35053">
        <ele>303</ele>
        <time>2015-12-05T11:07:35.000Z</time>
      </trkpt>
      <trkpt lat="44.22558" lon="4.35055">
        <ele>302.39999389648</ele>
        <time>2015-12-05T11:07:41.000Z</time>
      </trkpt>
    </trkseg>
  </trk>
</gpx>